Observation data for Rotan on 01/19/2019      Previous  Date  Next       Current Mesonet Observations  Soil Data  Daily Summary Page  Observations in Plain Language
KRO1 190600Z 33025KT 05/M02 A2999 RMK A01 T00541015  RH  061%=      5-min Rain = 0
KRO1 190601Z 33022KT 05/M02 A2999 RMK A01 T00541016  RH  061%=      5-min Rain = 0
KRO1 190602Z 33020G25KT 05/M02 A2999 RMK A01 T00541015  RH  061%=      5-min Rain = 0
KRO1 190603Z 33021KT 05/M02 A2999 RMK A01 T00541015  RH  061%=      5-min Rain = 0
KRO1 190604Z 33023KT 05/M02 A2999 RMK A01 T00541015  RH  061%=      5-min Rain = 0
KRO1 190605Z 33021KT 05/M02 A2999 RMK A01 T00541015  RH  061%=      5-min Rain = 0
KRO1 190606Z 33021KT 05/M02 A2999 RMK A01 T00541015  RH  061%=      5-min Rain = 0
KRO1 190607Z 33022G27KT 05/M02 A2999 RMK A01 T00541015  RH  061%=      5-min Rain = 0
KRO1 190608Z 33024KT 05/M02 A2999 RMK A01 T00541016  RH  061%=      5-min Rain = 0
KRO1 190609Z 32019G25KT 05/M02 A2999 RMK A01 T00541016  RH  061%=      5-min Rain = 0
KRO1 190610Z 32021KT 05/M02 A2999 RMK A01 T00541016  RH  061%=      5-min Rain = 0
KRO1 190611Z 33024KT 05/M02 A2999 RMK A01 T00541016  RH  061%=      5-min Rain = 0
KRO1 190612Z 33028KT 05/M02 A30 RMK A01 T00531017  RH  060%=      5-min Rain = 0
KRO1 190613Z 32027KT 05/M02 A2999 RMK A01 T00541017  RH  060%=      5-min Rain = 0
KRO1 190614Z 33023KT 05/M02 A30 RMK A01 T00541017  RH  060%=      5-min Rain = 0
KRO1 190615Z 33023KT 05/M02 A30 RMK A01 T00541017  RH  060%=      5-min Rain = 0
KRO1 190616Z 32022G30KT 05/M02 A30 RMK A01 T00541017  RH  060%=      5-min Rain = 0
KRO1 190617Z 32028KT 05/M02 A30 RMK A01 T00541017  RH  060%=      5-min Rain = 0
KRO1 190618Z 32027G32KT 05/M02 A30 RMK A01 T00531018  RH  060%=      5-min Rain = 0
KRO1 190619Z 32024KT 05/M02 A30 RMK A01 T00531017  RH  060%=      5-min Rain = 0
KRO1 190620Z 32024KT 05/M02 A30 RMK A01 T00521017  RH  061%=      5-min Rain = 0
KRO1 190621Z 33024G29KT 05/M02 A3001 RMK A01 T00521018  RH  061%=      5-min Rain = 0
KRO1 190622Z 32028KT 05/M02 A3001 RMK A01 T00521018  RH  061%=      5-min Rain = 0
KRO1 190623Z 33024KT 05/M02 A3001 RMK A01 T00511018  RH  061%=      5-min Rain = 0
KRO1 190624Z 32022KT 05/M02 A3001 RMK A01 T00511018  RH  061%=      5-min Rain = 0
KRO1 190625Z 32022KT 05/M02 A3001 RMK A01 T00511018  RH  061%=      5-min Rain = 0
KRO1 190626Z 32025G30KT 05/M02 A3001 RMK A01 T00511018  RH  061%=      5-min Rain = 0
KRO1 190627Z 32022G29KT 05/M02 A3001 RMK A01 T00511018  RH  061%=      5-min Rain = 0
KRO1 190628Z 32026KT 05/M02 A3001 RMK A01 T00511018  RH  061%=      5-min Rain = 0
KRO1 190629Z 32023KT 05/M02 A3002 RMK A01 T00501018  RH  061%=      5-min Rain = 0
KRO1 190630Z 33022G28KT 05/M02 A3002 RMK A01 T00511018  RH  061%=      5-min Rain = 0
KRO1 190631Z 32022G28KT 05/M02 A3002 RMK A01 T00501018  RH  061%=      5-min Rain = 0
KRO1 190632Z 33026KT 05/M02 A3002 RMK A01 T00501018  RH  061%=      5-min Rain = 0
KRO1 190633Z 33019KT 05/M02 A3002 RMK A01 T00501018  RH  061%=      5-min Rain = 0
KRO1 190634Z 33023G28KT 05/M02 A3002 RMK A01 T00501018  RH  062%=      5-min Rain = 0
KRO1 190635Z 33025G31KT 05/M02 A3002 RMK A01 T00501018  RH  061%=      5-min Rain = 0
KRO1 190636Z 33020G26KT 05/M02 A3002 RMK A01 T00501018  RH  061%=      5-min Rain = 0
KRO1 190637Z 32022KT 05/M02 A3002 RMK A01 T00501018  RH  062%=      5-min Rain = 0
KRO1 190638Z 33026G31KT 05/M02 A3002 RMK A01 T00491019  RH  061%=      5-min Rain = 0
KRO1 190639Z 33022KT 05/M02 A3002 RMK A01 T00501018  RH  061%=      5-min Rain = 0
KRO1 190640Z 33025KT 05/M02 A3002 RMK A01 T00491019  RH  061%=      5-min Rain = 0
KRO1 190641Z 33024G29KT 05/M02 A3002 RMK A01 T00491019  RH  061%=      5-min Rain = 0
KRO1 190642Z 33024G30KT 05/M02 A3002 RMK A01 T00491019  RH  061%=      5-min Rain = 0
KRO1 190643Z 33025KT 05/M02 A3002 RMK A01 T00491019  RH  061%=      5-min Rain = 0
KRO1 190644Z 33023KT 05/M02 A3002 RMK A01 T00491019  RH  061%=      5-min Rain = 0
KRO1 190645Z 33023KT 05/M02 A3002 RMK A01 T00491019  RH  061%=      5-min Rain = 0
KRO1 190646Z 33022KT 05/M02 A3003 RMK A01 T00491019  RH  061%=      5-min Rain = 0
KRO1 190647Z 33019G24KT 05/M02 A3003 RMK A01 T00491019  RH  061%=      5-min Rain = 0
KRO1 190648Z 32023KT 05/M02 A3003 RMK A01 T00491019  RH  061%=      5-min Rain = 0
KRO1 190649Z 33021G26KT 05/M02 A3003 RMK A01 T00491019  RH  061%=      5-min Rain = 0
KRO1 190650Z 33021KT 05/M02 A3003 RMK A01 T00491019  RH  062%=      5-min Rain = 0
KRO1 190651Z 33019G25KT 05/M02 A3003 RMK A01 T00491019  RH  062%=      5-min Rain = 0
KRO1 190652Z 33020KT 05/M02 A3003 RMK A01 T00491018  RH  062%=      5-min Rain = 0
KRO1 190653Z 34020G27KT 05/M02 A3003 RMK A01 T00491018  RH  062%=      5-min Rain = 0
KRO1 190654Z 33021KT 05/M02 A3003 RMK A01 T00491018  RH  062%=      5-min Rain = 0
KRO1 190655Z 33021KT 05/M02 A3003 RMK A01 T00491018  RH  062%=      5-min Rain = 0
KRO1 190656Z 33021G27KT 05/M02 A3003 RMK A01 T00481018  RH  062%=      5-min Rain = 0
KRO1 190657Z 33025KT 05/M02 A3003 RMK A01 T00481019  RH  062%=      5-min Rain = 0
KRO1 190658Z 33023KT 05/M02 A3003 RMK A01 T00481019  RH  062%=      5-min Rain = 0
KRO1 190659Z 33022G27KT 05/M02 A3003 RMK A01 T00481019  RH  062%=      5-min Rain = 0
KRO1 190700Z 33019G25KT 05/M02 A3003 RMK A01 T00481018  RH  063%=      5-min Rain = 0
KRO1 190701Z 32016KT 05/M02 A3004 RMK A01 T00481017  RH  063%=      5-min Rain = 0
KRO1 190702Z 32019G25KT 05/M02 A3004 RMK A01 T00471017  RH  063%=      5-min Rain = 0
KRO1 190703Z 33021KT 05/M02 A3004 RMK A01 T00471018  RH  063%=      5-min Rain = 0
KRO1 190704Z 32019KT 05/M02 A3004 RMK A01 T00471017  RH  063%=      5-min Rain = 0
KRO1 190705Z 32025KT 05/M02 A3004 RMK A01 T00461018  RH  063%=      5-min Rain = 0
KRO1 190706Z 33020KT 05/M02 A3004 RMK A01 T00461018  RH  063%=      5-min Rain = 0
KRO1 190707Z 33025G30KT 05/M02 A3004 RMK A01 T00451019  RH  063%=      5-min Rain = 0
KRO1 190708Z 32026KT 04/M02 A3004 RMK A01 T00441019  RH  064%=      5-min Rain = 0
KRO1 190709Z 32023KT 04/M02 A3004 RMK A01 T00441019  RH  064%=      5-min Rain = 0
KRO1 190710Z 33022KT 04/M02 A3004 RMK A01 T00431019  RH  064%=      5-min Rain = 0
KRO1 190711Z 32017KT 04/M02 A3004 RMK A01 T00431018  RH  064%=      5-min Rain = 0
KRO1 190712Z 32025G31KT 04/M02 A3004 RMK A01 T00431019  RH  064%=      5-min Rain = 0
KRO1 190713Z 32025KT 04/M02 A3004 RMK A01 T00421019  RH  064%=      5-min Rain = 0
KRO1 190714Z 32022KT 04/M02 A3004 RMK A01 T00421019  RH  064%=      5-min Rain = 0
KRO1 190715Z 32025G30KT 04/M02 A3004 RMK A01 T00421019  RH  065%=      5-min Rain = 0
KRO1 190716Z 32022G28KT 04/M02 A3004 RMK A01 T00421019  RH  065%=      5-min Rain = 0
KRO1 190717Z 32023G28KT 04/M02 A3004 RMK A01 T00411019  RH  065%=      5-min Rain = 0
KRO1 190718Z 32018G23KT 04/M02 A3004 RMK A01 T00411018  RH  065%=      5-min Rain = 0
KRO1 190719Z 32022G30KT 04/M02 A3004 RMK A01 T00411018  RH  066%=      5-min Rain = 0
KRO1 190720Z 32026G34KT 04/M02 A3005 RMK A01 T00411019  RH  065%=      5-min Rain = 0
KRO1 190721Z 32026KT 04/M02 A3005 RMK A01 T00401019  RH  065%=      5-min Rain = 0
KRO1 190722Z 33025KT 04/M02 A3005 RMK A01 T00401019  RH  065%=      5-min Rain = 0
KRO1 190723Z 33019KT 04/M02 A3005 RMK A01 T00401018  RH  066%=      5-min Rain = 0
KRO1 190724Z 33021G27KT 04/M02 A3005 RMK A01 T00401018  RH  066%=      5-min Rain = 0
KRO1 190725Z 32025KT 04/M02 A3005 RMK A01 T00401018  RH  066%=      5-min Rain = 0
KRO1 190726Z 32023KT 04/M02 A3005 RMK A01 T00391018  RH  066%=      5-min Rain = 0
KRO1 190727Z 32024KT 04/M02 A3005 RMK A01 T00391017  RH  066%=      5-min Rain = 0
KRO1 190728Z 32022KT 04/M02 A3005 RMK A01 T00391017  RH  067%=      5-min Rain = 0
KRO1 190729Z 32021KT 04/M02 A3005 RMK A01 T00391017  RH  067%=      5-min Rain = 0
KRO1 190730Z 32019G24KT 04/M02 A3005 RMK A01 T00391017  RH  067%=      5-min Rain = 0
KRO1 190731Z 32022G30KT 04/M02 A3005 RMK A01 T00391017  RH  067%=      5-min Rain = 0
KRO1 190732Z 32024G29KT 04/M02 A3005 RMK A01 T00391018  RH  067%=      5-min Rain = 0
KRO1 190733Z 32022G27KT 04/M02 A3005 RMK A01 T00391018  RH  067%=      5-min Rain = 0
KRO1 190734Z 33020KT 04/M02 A3005 RMK A01 T00391017  RH  067%=      5-min Rain = 0
KRO1 190735Z 32018KT 04/M02 A3006 RMK A01 T00381017  RH  067%=      5-min Rain = 0
KRO1 190736Z 32021KT 04/M02 A3005 RMK A01 T00381017  RH  067%=      5-min Rain = 0
KRO1 190737Z 32023KT 04/M02 A3006 RMK A01 T00381018  RH  067%=      5-min Rain = 0
KRO1 190738Z 32020G26KT 04/M02 A3006 RMK A01 T00381017  RH  067%=      5-min Rain = 0
KRO1 190739Z 32022G29KT 04/M02 A3006 RMK A01 T00381017  RH  067%=      5-min Rain = 0
KRO1 190740Z 32022G27KT 04/M02 A3006 RMK A01 T00381017  RH  067%=      5-min Rain = 0
KRO1 190741Z 32021KT 04/M02 A3006 RMK A01 T00381018  RH  067%=      5-min Rain = 0
KRO1 190742Z 32025G31KT 04/M02 A3006 RMK A01 T00371018  RH  067%=      5-min Rain = 0
KRO1 190743Z 32028G33KT 04/M02 A3006 RMK A01 T00371019  RH  067%=      5-min Rain = 0
KRO1 190744Z 33027G32KT 04/M02 A3007 RMK A01 T00371019  RH  067%=      5-min Rain = 0
KRO1 190745Z 32024G30KT 04/M02 A3007 RMK A01 T00361019  RH  067%=      5-min Rain = 0
KRO1 190746Z 33024G31KT 04/M02 A3007 RMK A01 T00361019  RH  067%=      5-min Rain = 0
KRO1 190747Z 33019KT 04/M02 A3007 RMK A01 T00361019  RH  067%=      5-min Rain = 0
KRO1 190748Z 33017KT 04/M02 A3007 RMK A01 T00361019  RH  067%=      5-min Rain = 0
KRO1 190749Z 33017KT 04/M02 A3007 RMK A01 T00361019  RH  067%=      5-min Rain = 0
KRO1 190750Z 33020KT 04/M02 A3007 RMK A01 T00361019  RH  067%=      5-min Rain = 0
KRO1 190751Z 33021KT 04/M02 A3007 RMK A01 T00361019  RH  067%=      5-min Rain = 0
KRO1 190752Z 33022G28KT 04/M02 A3007 RMK A01 T00361019  RH  067%=      5-min Rain = 0
KRO1 190753Z 33023G30KT 04/M02 A3007 RMK A01 T00361020  RH  067%=      5-min Rain = 0
KRO1 190754Z 33016KT 04/M02 A3007 RMK A01 T00361019  RH  067%=      5-min Rain = 0
KRO1 190755Z 33017KT 04/M02 A3007 RMK A01 T00361019  RH  067%=      5-min Rain = 0
KRO1 190756Z 32018KT 04/M02 A3007 RMK A01 T00361019  RH  067%=      5-min Rain = 0
KRO1 190757Z 32020KT 04/M02 A3007 RMK A01 T00361019  RH  067%=      5-min Rain = 0
KRO1 190758Z 33020KT 04/M02 A3007 RMK A01 T00361019  RH  067%=      5-min Rain = 0
KRO1 190759Z 33024KT 04/M02 A3008 RMK A01 T00361019  RH  068%=      5-min Rain = 0
KRO1 190800Z 33021KT 04/M02 A3008 RMK A01 T00361018  RH  068%=      5-min Rain = 0
KRO1 190801Z 32019KT 04/M02 A3008 RMK A01 T00351017  RH  068%=      5-min Rain = 0
KRO1 190802Z 33017KT 04/M02 A3008 RMK A01 T00351017  RH  069%=      5-min Rain = 0
KRO1 190803Z 32015KT 04/M02 A3008 RMK A01 T00351016  RH  069%=      5-min Rain = 0
KRO1 190804Z 32017KT 04/M02 A3008 RMK A01 T00351016  RH  070%=      5-min Rain = 0
KRO1 190805Z 32021KT 04/M02 A3008 RMK A01 T00351015  RH  070%=      5-min Rain = 0
KRO1 190806Z 33020KT 03/M02 A3008 RMK A01 T00341015  RH  070%=      5-min Rain = 0
KRO1 190807Z 33024G29KT 03/M02 A3008 RMK A01 T00341015  RH  070%=      5-min Rain = 0
KRO1 190808Z 33023G28KT 03/M02 A3008 RMK A01 T00331015  RH  070%=      5-min Rain = 0
KRO1 190809Z 34025G30KT 03/M01 A3008 RMK A01 T00331014  RH  071%=      5-min Rain = 0
KRO1 190810Z 33025KT 03/M01 A3008 RMK A01 T00311012  RH  074%=      5-min Rain = 0
KRO1 190811Z 33026KT 03/M01 A3008 RMK A01 T00281011  RH  076%=      5-min Rain = 0
KRO1 190812Z 33025KT 03/M01 A3008 RMK A01 T00251008  RH  078%=      5-min Rain = 0
KRO1 190813Z 32025G30KT 02/M01 A3009 RMK A01 T00221007  RH  081%=      5-min Rain = 0
KRO1 190814Z 33024KT 02/M01 A3009 RMK A01 T00201005  RH  083%=      5-min Rain = 0
KRO1 190815Z 33021G28KT 02/M00 A3009 RMK A01 T00191004  RH  085%=      5-min Rain = 0
KRO1 190816Z 32019G24KT 02/M00 A3009 RMK A01 T00171003  RH  087%=      5-min Rain = 0
KRO1 190817Z 32017KT 02/M00 A3009 RMK A01 T00161002  RH  088%=      5-min Rain = 0
KRO1 190818Z 32016KT 01/M00 A3009 RMK A01 T00141002  RH  089%=      5-min Rain = 0
KRO1 190819Z 32017KT 01/M00 A3009 RMK A01 T00131001  RH  090%=      5-min Rain = 0
KRO1 190820Z 32017KT 01/M00 A3009 RMK A01 T00121002  RH  091%=      5-min Rain = 0
KRO1 190821Z 32017KT 01/M00 A3009 RMK A01 T00101002  RH  092%=      5-min Rain = 0
KRO1 190822Z 31016G21KT 01/M00 A301 RMK A01 T00091002  RH  092%=      5-min Rain = 0
KRO1 190823Z 31015KT 01/M00 A301 RMK A01 T00081002  RH  093%=      5-min Rain = 0
KRO1 190824Z 32016G21KT 01/M00 A301 RMK A01 T00071003  RH  093%=      5-min Rain = 0
KRO1 190825Z 31014KT 01/M00 A3009 RMK A01 T00071002  RH  094%=      5-min Rain = 0
KRO1 190826Z 32016KT 01/M00 A3009 RMK A01 T00061003  RH  094%=      5-min Rain = 0
KRO1 190827Z 32014KT 01/M00 A3009 RMK A01 T00061002  RH  094%=      5-min Rain = 0
KRO1 190828Z 31015KT 01/M00 A3009 RMK A01 T00061002  RH  095%=      5-min Rain = 0
KRO1 190829Z 31014KT 01/M00 A3009 RMK A01 T00061002  RH  095%=      5-min Rain = 0
KRO1 190830Z 31014KT 01/M00 A3009 RMK A01 T00051002  RH  095%=      5-min Rain = 0
KRO1 190831Z 31012KT 01/M00 A3009 RMK A01 T00051001  RH  095%=      5-min Rain = 0
KRO1 190832Z 31012KT 01/M00 A3009 RMK A01 T00051001  RH  095%=      5-min Rain = 0
KRO1 190833Z 31011KT 01/M00 A3009 RMK A01 T00051001  RH  096%=      5-min Rain = 0
KRO1 190834Z 31011KT 01/M00 A3009 RMK A01 T00051001  RH  096%=      5-min Rain = 0
KRO1 190835Z 31009KT 01/M00 A3009 RMK A01 T00051001  RH  096%=      5-min Rain = 0
KRO1 190836Z 30011KT 01/M00 A3009 RMK A01 T00051001  RH  096%=      5-min Rain = 0
KRO1 190837Z 31012KT 01/00 A3009 RMK A01 T000500-0  RH  096%=      5-min Rain = 0
KRO1 190838Z 31011KT 01/00 A301 RMK A01 T000600-0  RH  096%=      5-min Rain = 0
KRO1 190839Z 31009KT 01/00 A301 RMK A01 T000600-0  RH  096%=      5-min Rain = 0
KRO1 190840Z 31010KT 01/00 A301 RMK A01 T00060000  RH  096%=      5-min Rain = 0
KRO1 190841Z 30011KT 01/00 A301 RMK A01 T00060001  RH  096%=      5-min Rain = 0
KRO1 190842Z 30011KT 01/00 A301 RMK A01 T00060001  RH  096%=      5-min Rain = 0
KRO1 190843Z 30010KT 01/00 A301 RMK A01 T00070001  RH  096%=      5-min Rain = 0
KRO1 190844Z 30011KT 01/00 A301 RMK A01 T00070001  RH  096%=      5-min Rain = 0
KRO1 190845Z 30011KT 01/00 A301 RMK A01 T00070001  RH  096%=      5-min Rain = 0
KRO1 190846Z 30010KT 01/00 A301 RMK A01 T00070001  RH  096%=      5-min Rain = 0
KRO1 190847Z 30011KT 01/00 A301 RMK A01 T00080002  RH  096%=      5-min Rain = 0
KRO1 190848Z 30012KT 01/00 A301 RMK A01 T00080002  RH  096%=      5-min Rain = 0
KRO1 190849Z 29012KT 01/00 A301 RMK A01 T00080002  RH  096%=      5-min Rain = 0
KRO1 190850Z 30012KT 01/00 A301 RMK A01 T00080002  RH  095%=      5-min Rain = 0
KRO1 190851Z 30011KT 01/00 A301 RMK A01 T00090002  RH  095%=      5-min Rain = 0
KRO1 190852Z 30011KT 01/00 A301 RMK A01 T00090002  RH  095%=      5-min Rain = 0
KRO1 190853Z 30011KT 01/00 A301 RMK A01 T00100002  RH  095%=      5-min Rain = 0
KRO1 190854Z 30010KT 01/00 A301 RMK A01 T00100002  RH  095%=      5-min Rain = 0
KRO1 190855Z 30009KT 01/00 A301 RMK A01 T00100002  RH  095%=      5-min Rain = 0
KRO1 190856Z 30011KT 01/00 A301 RMK A01 T00100003  RH  095%=      5-min Rain = 0
KRO1 190857Z 30010KT 01/00 A301 RMK A01 T00100002  RH  095%=      5-min Rain = 0
KRO1 190858Z 29011KT 01/00 A301 RMK A01 T00110003  RH  095%=      5-min Rain = 0
KRO1 190859Z 30011KT 01/00 A301 RMK A01 T00110003  RH  094%=      5-min Rain = 0
KRO1 190900Z 29011KT 01/00 A301 RMK A01 T00110003  RH  094%=      5-min Rain = 0.01
KRO1 190901Z 29012KT 01/00 A301 RMK A01 T00110003  RH  094%=      5-min Rain = 0
KRO1 190902Z 29012KT 01/00 A301 RMK A01 T00120003  RH  094%=      5-min Rain = 0
KRO1 190903Z 29014KT 01/00 A301 RMK A01 T00130004  RH  094%=      5-min Rain = 0
KRO1 190904Z 29013KT 01/00 A301 RMK A01 T00130003  RH  093%=      5-min Rain = 0
KRO1 190905Z 29014KT 01/00 A301 RMK A01 T00140003  RH  092%=      5-min Rain = 0
KRO1 190906Z 30012KT 01/00 A301 RMK A01 T00140003  RH  092%=      5-min Rain = 0
KRO1 190907Z 30012KT 02/00 A301 RMK A01 T00150003  RH  092%=      5-min Rain = 0
KRO1 190908Z 30014KT 02/00 A301 RMK A01 T00150003  RH  092%=      5-min Rain = 0
KRO1 190909Z 30015KT 02/00 A301 RMK A01 T00160003  RH  091%=      5-min Rain = 0
KRO1 190910Z 30013KT 02/00 A301 RMK A01 T00160003  RH  091%=      5-min Rain = 0
KRO1 190911Z 30014KT 02/00 A301 RMK A01 T00160002  RH  091%=      5-min Rain = 0
KRO1 190912Z 30013KT 02/00 A301 RMK A01 T00170003  RH  090%=      5-min Rain = 0
KRO1 190913Z 30014KT 02/00 A3011 RMK A01 T00170003  RH  090%=      5-min Rain = 0
KRO1 190914Z 30014KT 02/00 A3011 RMK A01 T00170003  RH  090%=      5-min Rain = 0
KRO1 190915Z 30014KT 02/00 A3011 RMK A01 T00170002  RH  090%=      5-min Rain = 0.01
KRO1 190916Z 30014KT 02/00 A3011 RMK A01 T00180002  RH  090%=      5-min Rain = 0
KRO1 190917Z 30013KT 02/00 A3011 RMK A01 T00180002  RH  090%=      5-min Rain = 0
KRO1 190918Z 31012KT 02/00 A3011 RMK A01 T00180003  RH  090%=      5-min Rain = 0
KRO1 190919Z 30012KT 02/00 A3011 RMK A01 T00180003  RH  090%=      5-min Rain = 0
KRO1 190920Z 30014KT 02/00 A3011 RMK A01 T00180003  RH  090%=      5-min Rain = 0
KRO1 190921Z 30014KT 02/00 A3011 RMK A01 T00180003  RH  089%=      5-min Rain = 0
KRO1 190922Z 31013KT 02/00 A3011 RMK A01 T00180002  RH  089%=      5-min Rain = 0
KRO1 190923Z 31012KT 02/00 A3011 RMK A01 T00190002  RH  089%=      5-min Rain = 0
KRO1 190924Z 31011KT 02/00 A3011 RMK A01 T00190002  RH  089%=      5-min Rain = 0
KRO1 190925Z 31011KT 02/00 A3011 RMK A01 T00190002  RH  089%=      5-min Rain = 0
KRO1 190926Z 31010KT 02/00 A3011 RMK A01 T00190003  RH  089%=      5-min Rain = 0
KRO1 190927Z 31011KT 02/00 A3011 RMK A01 T00190003  RH  089%=      5-min Rain = 0
KRO1 190928Z 31011KT 02/00 A3011 RMK A01 T00190003  RH  089%=      5-min Rain = 0
KRO1 190929Z 31010KT 02/00 A3011 RMK A01 T00190004  RH  089%=      5-min Rain = 0
KRO1 190930Z 31011KT 02/00 A3011 RMK A01 T00200004  RH  089%=      5-min Rain = 0
KRO1 190931Z 31012KT 02/00 A3011 RMK A01 T00200003  RH  089%=      5-min Rain = 0
KRO1 190932Z 31010KT 02/00 A3011 RMK A01 T00190003  RH  089%=      5-min Rain = 0
KRO1 190933Z 31011KT 02/00 A3011 RMK A01 T00190003  RH  089%=      5-min Rain = 0
KRO1 190934Z 31011KT 02/00 A3011 RMK A01 T00190003  RH  089%=      5-min Rain = 0
KRO1 190935Z 31012KT 02/00 A3011 RMK A01 T00200002  RH  088%=      5-min Rain = 0
KRO1 190936Z 31010KT 02/00 A3011 RMK A01 T00200003  RH  088%=      5-min Rain = 0
KRO1 190937Z 30010KT 02/00 A3012 RMK A01 T00200003  RH  089%=      5-min Rain = 0
KRO1 190938Z 31011KT 02/00 A3012 RMK A01 T00200003  RH  089%=      5-min Rain = 0
KRO1 190939Z 30010KT 02/00 A3012 RMK A01 T00200003  RH  088%=      5-min Rain = 0
KRO1 190940Z 30010KT 02/00 A3012 RMK A01 T00200003  RH  088%=      5-min Rain = 0
KRO1 190941Z 30011KT 02/00 A3012 RMK A01 T00200003  RH  088%=      5-min Rain = 0
KRO1 190942Z 31011KT 02/00 A3012 RMK A01 T00200002  RH  088%=      5-min Rain = 0
KRO1 190943Z 30010KT 02/00 A3012 RMK A01 T00200002  RH  088%=      5-min Rain = 0
KRO1 190944Z 31010KT 02/00 A3012 RMK A01 T00200003  RH  088%=      5-min Rain = 0
KRO1 190945Z 30008KT 02/00 A3012 RMK A01 T00210004  RH  089%=      5-min Rain = 0
KRO1 190946Z 30009KT 02/00 A3012 RMK A01 T00210004  RH  089%=      5-min Rain = 0
KRO1 190947Z 31009KT 02/01 A3012 RMK A01 T00210005  RH  089%=      5-min Rain = 0
KRO1 190948Z 31009KT 02/00 A3012 RMK A01 T00210004  RH  089%=      5-min Rain = 0
KRO1 190949Z 31010KT 02/00 A3012 RMK A01 T00210004  RH  089%=      5-min Rain = 0
KRO1 190950Z 31009KT 02/00 A3012 RMK A01 T00210004  RH  088%=      5-min Rain = 0
KRO1 190951Z 30008KT 02/00 A3012 RMK A01 T00210004  RH  088%=      5-min Rain = 0
KRO1 190952Z 31008KT 02/01 A3012 RMK A01 T00210005  RH  089%=      5-min Rain = 0
KRO1 190953Z 30009KT 02/01 A3012 RMK A01 T00220005  RH  089%=      5-min Rain = 0
KRO1 190954Z 31009KT 02/00 A3012 RMK A01 T00220004  RH  088%=      5-min Rain = 0
KRO1 190955Z 31008KT 02/00 A3012 RMK A01 T00220004  RH  088%=      5-min Rain = 0
KRO1 190956Z 31010KT 02/01 A3012 RMK A01 T00220005  RH  088%=      5-min Rain = 0
KRO1 190957Z 31009KT 02/00 A3012 RMK A01 T00220004  RH  088%=      5-min Rain = 0
KRO1 190958Z 31011KT 02/00 A3012 RMK A01 T00230004  RH  088%=      5-min Rain = 0
KRO1 190959Z 31009KT 02/00 A3012 RMK A01 T00230004  RH  087%=      5-min Rain = 0
KRO1 191000Z 31008KT 02/00 A3012 RMK A01 T00230004  RH  088%=      5-min Rain = 0
KRO1 191001Z 31008KT 02/01 A3012 RMK A01 T00230005  RH  088%=      5-min Rain = 0
KRO1 191002Z 31007KT 02/01 A3012 RMK A01 T00230005  RH  088%=      5-min Rain = 0
KRO1 191003Z 31009KT 02/01 A3012 RMK A01 T00230005  RH  088%=      5-min Rain = 0
KRO1 191004Z 30009KT 02/00 A3012 RMK A01 T00230004  RH  088%=      5-min Rain = 0
KRO1 191005Z 31010KT 02/00 A3012 RMK A01 T00230004  RH  087%=      5-min Rain = 0
KRO1 191006Z 30010KT 02/00 A3012 RMK A01 T00230004  RH  087%=      5-min Rain = 0
KRO1 191007Z 31010KT 02/00 A3012 RMK A01 T00240004  RH  087%=      5-min Rain = 0
KRO1 191008Z 30010KT 02/00 A3012 RMK A01 T00230003  RH  087%=      5-min Rain = 0
KRO1 191009Z 31009KT 02/00 A3012 RMK A01 T00240003  RH  086%=      5-min Rain = 0
KRO1 191010Z 31008KT 02/00 A3012 RMK A01 T00240004  RH  087%=      5-min Rain = 0
KRO1 191011Z 30008KT 02/01 A3012 RMK A01 T00240005  RH  087%=      5-min Rain = 0
KRO1 191012Z 30009KT 02/00 A3012 RMK A01 T00230004  RH  087%=      5-min Rain = 0
KRO1 191013Z 31009KT 02/00 A3012 RMK A01 T00240004  RH  087%=      5-min Rain = 0
KRO1 191014Z 31009KT 02/00 A3012 RMK A01 T00230004  RH  087%=      5-min Rain = 0
KRO1 191015Z 31008KT 02/00 A3012 RMK A01 T00230003  RH  087%=      5-min Rain = 0
KRO1 191016Z 30008KT 02/00 A3012 RMK A01 T00240003  RH  086%=      5-min Rain = 0
KRO1 191017Z 30008KT 02/00 A3012 RMK A01 T00240003  RH  087%=      5-min Rain = 0
KRO1 191018Z 31009KT 02/00 A3012 RMK A01 T00240004  RH  087%=      5-min Rain = 0
KRO1 191019Z 31009KT 02/00 A3012 RMK A01 T00240004  RH  087%=      5-min Rain = 0
KRO1 191020Z 31007KT 02/00 A3012 RMK A01 T00240004  RH  087%=      5-min Rain = 0
KRO1 191021Z 31009KT 02/00 A3012 RMK A01 T00230004  RH  087%=      5-min Rain = 0
KRO1 191022Z 31008KT 02/00 A3012 RMK A01 T00240004  RH  087%=      5-min Rain = 0
KRO1 191023Z 31007KT 02/00 A3012 RMK A01 T00240004  RH  087%=      5-min Rain = 0
KRO1 191024Z 31008KT 02/00 A3012 RMK A01 T00240004  RH  087%=      5-min Rain = 0
KRO1 191025Z 31009KT 02/00 A3012 RMK A01 T00240004  RH  087%=      5-min Rain = 0
KRO1 191026Z 31008KT 02/00 A3012 RMK A01 T00240004  RH  087%=      5-min Rain = 0
KRO1 191027Z 31007KT 02/01 A3012 RMK A01 T00240005  RH  087%=      5-min Rain = 0
KRO1 191028Z 31008KT 02/01 A3012 RMK A01 T00240005  RH  087%=      5-min Rain = 0
KRO1 191029Z 31008KT 02/00 A3012 RMK A01 T00240004  RH  087%=      5-min Rain = 0
KRO1 191030Z 31008KT 02/00 A3012 RMK A01 T00230004  RH  087%=      5-min Rain = 0
KRO1 191031Z 30008KT 02/00 A3012 RMK A01 T00240004  RH  087%=      5-min Rain = 0
KRO1 191032Z 30009KT 02/00 A3012 RMK A01 T00230004  RH  087%=      5-min Rain = 0
KRO1 191033Z 30009KT 02/01 A3013 RMK A01 T00240005  RH  087%=      5-min Rain = 0
KRO1 191034Z 30008KT 02/01 A3013 RMK A01 T00240005  RH  087%=      5-min Rain = 0
KRO1 191035Z 30008KT 02/01 A3013 RMK A01 T00240005  RH  088%=      5-min Rain = 0
KRO1 191036Z 30009KT 02/01 A3013 RMK A01 T00240005  RH  088%=      5-min Rain = 0
KRO1 191037Z 30008KT 02/01 A3013 RMK A01 T00240005  RH  088%=      5-min Rain = 0
KRO1 191038Z 31009KT 02/01 A3013 RMK A01 T00230006  RH  088%=      5-min Rain = 0
KRO1 191039Z 31007KT 02/01 A3013 RMK A01 T00230005  RH  088%=      5-min Rain = 0
KRO1 191040Z 31009KT 02/01 A3013 RMK A01 T00230006  RH  088%=      5-min Rain = 0
KRO1 191041Z 31008KT 02/01 A3013 RMK A01 T00230005  RH  088%=      5-min Rain = 0
KRO1 191042Z 30008KT 02/01 A3013 RMK A01 T00230005  RH  088%=      5-min Rain = 0
KRO1 191043Z 31008KT 02/01 A3013 RMK A01 T00240005  RH  088%=      5-min Rain = 0
KRO1 191044Z 31008KT 02/01 A3013 RMK A01 T00240006  RH  088%=      5-min Rain = 0
KRO1 191045Z 30009KT 02/01 A3013 RMK A01 T00240005  RH  088%=      5-min Rain = 0
KRO1 191046Z 30009KT 02/01 A3013 RMK A01 T00240005  RH  088%=      5-min Rain = 0
KRO1 191047Z 30009KT 02/01 A3013 RMK A01 T00230005  RH  087%=      5-min Rain = 0
KRO1 191048Z 30008KT 02/01 A3013 RMK A01 T00240005  RH  087%=      5-min Rain = 0
KRO1 191049Z 31008KT 02/01 A3013 RMK A01 T00240005  RH  088%=      5-min Rain = 0
KRO1 191050Z 30009KT 02/01 A3013 RMK A01 T00230005  RH  088%=      5-min Rain = 0
KRO1 191051Z 31009KT 02/00 A3014 RMK A01 T00230004  RH  087%=      5-min Rain = 0
KRO1 191052Z 30009KT 02/00 A3014 RMK A01 T00240004  RH  087%=      5-min Rain = 0
KRO1 191053Z 31009KT 02/00 A3014 RMK A01 T00240004  RH  087%=      5-min Rain = 0
KRO1 191054Z 31009KT 02/00 A3014 RMK A01 T00240004  RH  087%=      5-min Rain = 0
KRO1 191055Z 31010KT 02/00 A3014 RMK A01 T00240004  RH  087%=      5-min Rain = 0
KRO1 191056Z 31010KT 02/00 A3014 RMK A01 T00240004  RH  087%=      5-min Rain = 0
KRO1 191057Z 31010KT 02/00 A3014 RMK A01 T00240004  RH  087%=      5-min Rain = 0
KRO1 191058Z 31009KT 02/00 A3014 RMK A01 T00240004  RH  086%=      5-min Rain = 0
KRO1 191059Z 31009KT 02/00 A3014 RMK A01 T00240004  RH  086%=      5-min Rain = 0
KRO1 191100Z 31011KT 02/00 A3014 RMK A01 T00240004  RH  087%=      5-min Rain = 0
KRO1 191101Z 31012KT 02/00 A3014 RMK A01 T00240003  RH  086%=      5-min Rain = 0
KRO1 191102Z 32011KT 02/00 A3014 RMK A01 T00240002  RH  085%=      5-min Rain = 0
KRO1 191103Z 31012KT 03/00 A3015 RMK A01 T00250002  RH  085%=      5-min Rain = 0
KRO1 191104Z 31013KT 03/00 A3015 RMK A01 T00250001  RH  084%=      5-min Rain = 0
KRO1 191105Z 31014KT 03/00 A3015 RMK A01 T00250000  RH  083%=      5-min Rain = 0
KRO1 191106Z 32012KT 03/M00 A3015 RMK A01 T00251001  RH  083%=      5-min Rain = 0
KRO1 191107Z 32011KT 03/M00 A3015 RMK A01 T00251001  RH  083%=      5-min Rain = 0
KRO1 191108Z 31012G17KT 03/00 A3015 RMK A01 T002500-0  RH  083%=      5-min Rain = 0
KRO1 191109Z 32012KT 03/M00 A3015 RMK A01 T00251001  RH  083%=      5-min Rain = 0
KRO1 191110Z 32013KT 03/M00 A3015 RMK A01 T00251002  RH  083%=      5-min Rain = 0
KRO1 191111Z 32017KT 02/M00 A3015 RMK A01 T00241003  RH  082%=      5-min Rain = 0
KRO1 191112Z 32015KT 02/M01 A3015 RMK A01 T00241005  RH  081%=      5-min Rain = 0
KRO1 191113Z 32014KT 02/M01 A3015 RMK A01 T00241005  RH  081%=      5-min Rain = 0
KRO1 191114Z 32014G19KT 02/M00 A3015 RMK A01 T00241004  RH  081%=      5-min Rain = 0
KRO1 191115Z 31015KT 02/M01 A3015 RMK A01 T00241005  RH  081%=      5-min Rain = 0
KRO1 191116Z 32016KT 02/M01 A3016 RMK A01 T00241006  RH  081%=      5-min Rain = 0
KRO1 191117Z 31017KT 02/M01 A3016 RMK A01 T00241007  RH  080%=      5-min Rain = 0
KRO1 191118Z 31016KT 02/M01 A3016 RMK A01 T00231009  RH  079%=      5-min Rain = 0
KRO1 191119Z 32016KT 02/M01 A3016 RMK A01 T00231009  RH  079%=      5-min Rain = 0
KRO1 191120Z 32019KT 02/M01 A3016 RMK A01 T00241010  RH  079%=      5-min Rain = 0
KRO1 191121Z 32018KT 02/M01 A3016 RMK A01 T00241010  RH  078%=      5-min Rain = 0
KRO1 191122Z 32020KT 02/M01 A3016 RMK A01 T00241010  RH  078%=      5-min Rain = 0
KRO1 191123Z 32020KT 02/M01 A3016 RMK A01 T00241012  RH  077%=      5-min Rain = 0
KRO1 191124Z 32020KT 02/M01 A3016 RMK A01 T00241013  RH  077%=      5-min Rain = 0
KRO1 191125Z 32018KT 02/M02 A3016 RMK A01 T00241015  RH  076%=      5-min Rain = 0
KRO1 191126Z 32016G21KT 02/M01 A3016 RMK A01 T00231014  RH  076%=      5-min Rain = 0
KRO1 191127Z 32017KT 02/M01 A3016 RMK A01 T00221014  RH  077%=      5-min Rain = 0
KRO1 191128Z 32018KT 02/M02 A3016 RMK A01 T00221015  RH  076%=      5-min Rain = 0
KRO1 191129Z 32015KT 02/M02 A3017 RMK A01 T00221017  RH  075%=      5-min Rain = 0
KRO1 191130Z 32018KT 02/M02 A3017 RMK A01 T00221017  RH  076%=      5-min Rain = 0
KRO1 191131Z 32016KT 02/M02 A3017 RMK A01 T00211018  RH  075%=      5-min Rain = 0
KRO1 191132Z 32014KT 02/M02 A3017 RMK A01 T00201017  RH  076%=      5-min Rain = 0
KRO1 191133Z 32016KT 02/M02 A3017 RMK A01 T00191017  RH  077%=      5-min Rain = 0
KRO1 191134Z 32015KT 02/M02 A3017 RMK A01 T00191018  RH  076%=      5-min Rain = 0
KRO1 191135Z 32018KT 02/M02 A3017 RMK A01 T00191019  RH  076%=      5-min Rain = 0
KRO1 191136Z 32019KT 02/M02 A3017 RMK A01 T00191021  RH  075%=      5-min Rain = 0
KRO1 191137Z 32021G26KT 02/M02 A3017 RMK A01 T00191022  RH  074%=      5-min Rain = 0
KRO1 191138Z 32020KT 02/M02 A3017 RMK A01 T00191024  RH  073%=      5-min Rain = 0
KRO1 191139Z 33018KT 02/M03 A3017 RMK A01 T00191025  RH  073%=      5-min Rain = 0
KRO1 191140Z 32021KT 02/M02 A3017 RMK A01 T00191024  RH  073%=      5-min Rain = 0
KRO1 191141Z 32020G26KT 02/M03 A3017 RMK A01 T00201025  RH  072%=      5-min Rain = 0
KRO1 191142Z 32020KT 02/M03 A3017 RMK A01 T00191026  RH  072%=      5-min Rain = 0
KRO1 191143Z 33018KT 02/M03 A3018 RMK A01 T00191025  RH  072%=      5-min Rain = 0
KRO1 191144Z 33019KT 02/M03 A3018 RMK A01 T00191026  RH  072%=      5-min Rain = 0
KRO1 191145Z 32015G20KT 02/M03 A3018 RMK A01 T00191027  RH  072%=      5-min Rain = 0
KRO1 191146Z 32019G25KT 02/M03 A3018 RMK A01 T00181026  RH  072%=      5-min Rain = 0
KRO1 191147Z 33017G22KT 02/M03 A3018 RMK A01 T00181027  RH  072%=      5-min Rain = 0
KRO1 191148Z 33016KT 02/M03 A3018 RMK A01 T00181027  RH  072%=      5-min Rain = 0
KRO1 191149Z 33019G25KT 02/M03 A3018 RMK A01 T00181027  RH  072%=      5-min Rain = 0
KRO1 191150Z 33020KT 02/M03 A3017 RMK A01 T00181029  RH  071%=      5-min Rain = 0
KRO1 191151Z 34016KT 02/M03 A3017 RMK A01 T00181030  RH  071%=      5-min Rain = 0
KRO1 191152Z 33016KT 02/M03 A3018 RMK A01 T00181028  RH  071%=      5-min Rain = 0
KRO1 191153Z 34015KT 02/M03 A3018 RMK A01 T00181028  RH  072%=      5-min Rain = 0
KRO1 191154Z 34018KT 02/M03 A3018 RMK A01 T00171028  RH  072%=      5-min Rain = 0
KRO1 191155Z 33015KT 02/M03 A3018 RMK A01 T00171029  RH  072%=      5-min Rain = 0
KRO1 191156Z 33015G22KT 02/M03 A3018 RMK A01 T00161027  RH  073%=      5-min Rain = 0
KRO1 191157Z 33016KT 02/M03 A3018 RMK A01 T00161028  RH  072%=      5-min Rain = 0
KRO1 191158Z 32016KT 02/M03 A3018 RMK A01 T00161029  RH  072%=      5-min Rain = 0
KRO1 191159Z 33015KT 02/M03 A3018 RMK A01 T00161028  RH  072%=      5-min Rain = 0
KRO1 191200Z 32016KT 02/M03 A3018 RMK A01 T00161028  RH  072%=      5-min Rain = 0
KRO1 191201Z 32017KT 02/M03 A3019 RMK A01 T00161029  RH  072%=      5-min Rain = 0
KRO1 191202Z 33015KT 02/M03 A3019 RMK A01 T00161029  RH  072%=      5-min Rain = 0
KRO1 191203Z 32014KT 02/M03 A3019 RMK A01 T00161029  RH  072%=      5-min Rain = 0
KRO1 191204Z 32012KT 02/M03 A3019 RMK A01 T00151028  RH  073%=      5-min Rain = 0
KRO1 191205Z 32012KT 02/M03 A3019 RMK A01 T00151027  RH  073%=      5-min Rain = 0
KRO1 191206Z 32014KT 01/M03 A3019 RMK A01 T00141028  RH  074%=      5-min Rain = 0
KRO1 191207Z 32015KT 01/M03 A3019 RMK A01 T00141028  RH  073%=      5-min Rain = 0
KRO1 191208Z 32013KT 02/M03 A3019 RMK A01 T00151029  RH  073%=      5-min Rain = 0
KRO1 191209Z 32015KT 02/M03 A3019 RMK A01 T00151029  RH  073%=      5-min Rain = 0
KRO1 191210Z 32013KT 02/M03 A3019 RMK A01 T00151029  RH  073%=      5-min Rain = 0
KRO1 191211Z 32013KT 01/M03 A3019 RMK A01 T00141028  RH  073%=      5-min Rain = 0
KRO1 191212Z 32013KT 01/M03 A302 RMK A01 T00141029  RH  073%=      5-min Rain = 0
KRO1 191213Z 32013KT 01/M03 A3019 RMK A01 T00141029  RH  073%=      5-min Rain = 0
KRO1 191214Z 32014KT 01/M03 A3019 RMK A01 T00141029  RH  073%=      5-min Rain = 0
KRO1 191215Z 32013KT 01/M03 A302 RMK A01 T00141029  RH  073%=      5-min Rain = 0
KRO1 191216Z 32013KT 01/M03 A302 RMK A01 T00131029  RH  073%=      5-min Rain = 0
KRO1 191217Z 32014KT 01/M03 A302 RMK A01 T00131029  RH  073%=      5-min Rain = 0
KRO1 191218Z 32014KT 01/M03 A302 RMK A01 T00131029  RH  074%=      5-min Rain = 0
KRO1 191219Z 32011KT 01/M03 A302 RMK A01 T00131029  RH  074%=      5-min Rain = 0
KRO1 191220Z 32012KT 01/M03 A302 RMK A01 T00121027  RH  075%=      5-min Rain = 0
KRO1 191221Z 31011KT 01/M03 A302 RMK A01 T00121027  RH  075%=      5-min Rain = 0
KRO1 191222Z 31012KT 01/M03 A302 RMK A01 T00121027  RH  075%=      5-min Rain = 0
KRO1 191223Z 31012KT 01/M03 A302 RMK A01 T00111027  RH  076%=      5-min Rain = 0
KRO1 191224Z 31014KT 01/M03 A302 RMK A01 T00111027  RH  076%=      5-min Rain = 0
KRO1 191225Z 31015KT 01/M03 A302 RMK A01 T00121028  RH  075%=      5-min Rain = 0
KRO1 191226Z 32015KT 01/M03 A302 RMK A01 T00121028  RH  074%=      5-min Rain = 0
KRO1 191227Z 31013KT 01/M03 A302 RMK A01 T00131027  RH  075%=      5-min Rain = 0
KRO1 191228Z 32014KT 01/M03 A302 RMK A01 T00121028  RH  075%=      5-min Rain = 0
KRO1 191229Z 32015KT 01/M03 A302 RMK A01 T00121028  RH  075%=      5-min Rain = 0
KRO1 191230Z 32015KT 01/M03 A302 RMK A01 T00121029  RH  074%=      5-min Rain = 0
KRO1 191231Z 32014KT 01/M03 A302 RMK A01 T00121029  RH  074%=      5-min Rain = 0
KRO1 191232Z 31013G18KT 01/M03 A302 RMK A01 T00121028  RH  075%=      5-min Rain = 0
KRO1 191233Z 31014KT 01/M03 A302 RMK A01 T00111029  RH  075%=      5-min Rain = 0
KRO1 191234Z 32018G24KT 01/M03 A302 RMK A01 T00111029  RH  074%=      5-min Rain = 0
KRO1 191235Z 32015KT 01/M03 A302 RMK A01 T00111030  RH  074%=      5-min Rain = 0
KRO1 191236Z 32014KT 01/M03 A3021 RMK A01 T00121031  RH  073%=      5-min Rain = 0
KRO1 191237Z 32016KT 01/M03 A3021 RMK A01 T00111031  RH  073%=      5-min Rain = 0
KRO1 191238Z 32014KT 01/M03 A3021 RMK A01 T00121031  RH  073%=      5-min Rain = 0
KRO1 191239Z 32015KT 01/M03 A3021 RMK A01 T00121031  RH  073%=      5-min Rain = 0
KRO1 191240Z 32016KT 01/M03 A3021 RMK A01 T00111032  RH  073%=      5-min Rain = 0
KRO1 191241Z 32017KT 01/M03 A3021 RMK A01 T00111032  RH  073%=      5-min Rain = 0
KRO1 191242Z 33017KT 01/M03 A3021 RMK A01 T00121034  RH  072%=      5-min Rain = 0
KRO1 191243Z 32015KT 01/M03 A3021 RMK A01 T00111034  RH  072%=      5-min Rain = 0
KRO1 191244Z 32015KT 01/M03 A3021 RMK A01 T00121033  RH  072%=      5-min Rain = 0
KRO1 191245Z 32016KT 01/M03 A3021 RMK A01 T00121034  RH  072%=      5-min Rain = 0
KRO1 191246Z 32015KT 01/M03 A3021 RMK A01 T00121034  RH  072%=      5-min Rain = 0
KRO1 191247Z 32015KT 01/M03 A3021 RMK A01 T00111033  RH  072%=      5-min Rain = 0
KRO1 191248Z 32015KT 01/M03 A3021 RMK A01 T00111034  RH  072%=      5-min Rain = 0
KRO1 191249Z 32015G20KT 01/M03 A3021 RMK A01 T00111034  RH  072%=      5-min Rain = 0
KRO1 191250Z 32017KT 01/M03 A3021 RMK A01 T00111033  RH  072%=      5-min Rain = 0
KRO1 191251Z 32018KT 01/M03 A3021 RMK A01 T00111034  RH  072%=      5-min Rain = 0
KRO1 191252Z 32015KT 01/M03 A3021 RMK A01 T00111034  RH  072%=      5-min Rain = 0
KRO1 191253Z 32016KT 01/M03 A3021 RMK A01 T00111033  RH  073%=      5-min Rain = 0
KRO1 191254Z 32015KT 01/M04 A3021 RMK A01 T00101035  RH  072%=      5-min Rain = 0
KRO1 191255Z 33016KT 01/M03 A3021 RMK A01 T00101034  RH  072%=      5-min Rain = 0
KRO1 191256Z 32017KT 01/M04 A3021 RMK A01 T00101035  RH  072%=      5-min Rain = 0
KRO1 191257Z 33016KT 01/M04 A3021 RMK A01 T00101035  RH  072%=      5-min Rain = 0
KRO1 191258Z 33014G19KT 01/M03 A3021 RMK A01 T00101034  RH  072%=      5-min Rain = 0
KRO1 191259Z 33020KT 01/M04 A3021 RMK A01 T00091037  RH  071%=      5-min Rain = 0
KRO1 191300Z 33020G25KT 01/M04 A3021 RMK A01 T00111039  RH  069%=      5-min Rain = 0
KRO1 191301Z 34017KT 01/M04 A3021 RMK A01 T00121040  RH  069%=      5-min Rain = 0
KRO1 191302Z 34016KT 01/M04 A3022 RMK A01 T00111039  RH  069%=      5-min Rain = 0
KRO1 191303Z 33018KT 01/M04 A3022 RMK A01 T00101039  RH  070%=      5-min Rain = 0
KRO1 191304Z 33017KT 01/M04 A3022 RMK A01 T00101040  RH  069%=      5-min Rain = 0
KRO1 191305Z 33014KT 01/M04 A3022 RMK A01 T00101039  RH  070%=      5-min Rain = 0
KRO1 191306Z 33019G25KT 01/M04 A3022 RMK A01 T00101040  RH  069%=      5-min Rain = 0
KRO1 191307Z 33019KT 01/M04 A3022 RMK A01 T00101041  RH  069%=      5-min Rain = 0
KRO1 191308Z 33018KT 01/M04 A3022 RMK A01 T00111041  RH  068%=      5-min Rain = 0
KRO1 191309Z 33016KT 01/M04 A3022 RMK A01 T00111040  RH  069%=      5-min Rain = 0
KRO1 191310Z 33017KT 01/M04 A3022 RMK A01 T00101040  RH  070%=      5-min Rain = 0
KRO1 191311Z 32015KT 01/M04 A3022 RMK A01 T00101040  RH  069%=      5-min Rain = 0
KRO1 191312Z 33015KT 01/M04 A3022 RMK A01 T00101040  RH  070%=      5-min Rain = 0
KRO1 191313Z 33017KT 01/M04 A3022 RMK A01 T00091041  RH  069%=      5-min Rain = 0
KRO1 191314Z 33015KT 01/M04 A3022 RMK A01 T00091040  RH  069%=      5-min Rain = 0
KRO1 191315Z 33015KT 01/M04 A3022 RMK A01 T00091041  RH  069%=      5-min Rain = 0
KRO1 191316Z 33014KT 01/M04 A3022 RMK A01 T00091040  RH  070%=      5-min Rain = 0
KRO1 191317Z 33012KT 01/M04 A3022 RMK A01 T00081040  RH  070%=      5-min Rain = 0
KRO1 191318Z 33013G18KT 01/M04 A3022 RMK A01 T00081039  RH  071%=      5-min Rain = 0
KRO1 191319Z 33015KT 01/M04 A3022 RMK A01 T00081040  RH  070%=      5-min Rain = 0
KRO1 191320Z 33013KT 01/M04 A3022 RMK A01 T00081041  RH  070%=      5-min Rain = 0
KRO1 191321Z 33013KT 01/M04 A3022 RMK A01 T00071040  RH  071%=      5-min Rain = 0
KRO1 191322Z 33013KT 01/M04 A3022 RMK A01 T00071041  RH  070%=      5-min Rain = 0
KRO1 191323Z 33014KT 01/M04 A3022 RMK A01 T00071042  RH  069%=      5-min Rain = 0
KRO1 191324Z 33013KT 01/M04 A3022 RMK A01 T00081042  RH  069%=      5-min Rain = 0
KRO1 191325Z 33013KT 01/M04 A3022 RMK A01 T00081042  RH  070%=      5-min Rain = 0
KRO1 191326Z 32012KT 01/M04 A3022 RMK A01 T00071042  RH  070%=      5-min Rain = 0
KRO1 191327Z 32014KT 01/M04 A3023 RMK A01 T00071041  RH  070%=      5-min Rain = 0
KRO1 191328Z 32013KT 01/M04 A3023 RMK A01 T00071042  RH  070%=      5-min Rain = 0
KRO1 191329Z 32013KT 01/M04 A3022 RMK A01 T00061042  RH  070%=      5-min Rain = 0
KRO1 191330Z 33014KT 01/M04 A3023 RMK A01 T00071042  RH  070%=      5-min Rain = 0
KRO1 191331Z 32012KT 01/M04 A3023 RMK A01 T00071042  RH  070%=      5-min Rain = 0
KRO1 191332Z 32012KT 01/M04 A3023 RMK A01 T00061042  RH  070%=      5-min Rain = 0
KRO1 191333Z 32015KT 01/M04 A3023 RMK A01 T00071043  RH  069%=      5-min Rain = 0
KRO1 191334Z 32012KT 01/M04 A3023 RMK A01 T00071043  RH  069%=      5-min Rain = 0
KRO1 191335Z 32012KT 01/M04 A3023 RMK A01 T00071042  RH  070%=      5-min Rain = 0
KRO1 191336Z 32012KT 01/M04 A3023 RMK A01 T00071043  RH  070%=      5-min Rain = 0
KRO1 191337Z 32011KT 01/M04 A3023 RMK A01 T00071042  RH  070%=      5-min Rain = 0
KRO1 191338Z 32012KT 01/M04 A3023 RMK A01 T00061042  RH  070%=      5-min Rain = 0
KRO1 191339Z 32011KT 01/M04 A3023 RMK A01 T00061042  RH  070%=      5-min Rain = 0
KRO1 191340Z 31010KT 01/M04 A3023 RMK A01 T00061041  RH  071%=      5-min Rain = 0
KRO1 191341Z 32011KT 01/M04 A3023 RMK A01 T00051041  RH  071%=      5-min Rain = 0
KRO1 191342Z 32012KT 01/M04 A3023 RMK A01 T00051042  RH  071%=      5-min Rain = 0
KRO1 191343Z 32010KT 01/M04 A3023 RMK A01 T00061042  RH  070%=      5-min Rain = 0
KRO1 191344Z 32009KT 01/M04 A3024 RMK A01 T00061042  RH  070%=      5-min Rain = 0
KRO1 191345Z 31010KT 01/M04 A3024 RMK A01 T00051040  RH  072%=      5-min Rain = 0
KRO1 191346Z 31010KT 01/M04 A3024 RMK A01 T00051040  RH  072%=      5-min Rain = 0
KRO1 191347Z 31010KT 01/M04 A3024 RMK A01 T00051039  RH  073%=      5-min Rain = 0
KRO1 191348Z 31010KT 00/M04 A3024 RMK A01 T00041039  RH  073%=      5-min Rain = 0
KRO1 191349Z 31011KT 00/M04 A3024 RMK A01 T00041039  RH  073%=      5-min Rain = 0
KRO1 191350Z 31009KT 00/M04 A3024 RMK A01 T00041038  RH  073%=      5-min Rain = 0
KRO1 191351Z 31009KT 00/M04 A3024 RMK A01 T00041038  RH  073%=      5-min Rain = 0
KRO1 191352Z 31009KT 00/M04 A3024 RMK A01 T00041039  RH  073%=      5-min Rain = 0
KRO1 191353Z 31008KT 00/M04 A3025 RMK A01 T00041038  RH  073%=      5-min Rain = 0
KRO1 191354Z 31008KT 00/M04 A3025 RMK A01 T00041037  RH  074%=      5-min Rain = 0
KRO1 191355Z 31009KT 00/M04 A3025 RMK A01 T00041036  RH  075%=      5-min Rain = 0
KRO1 191356Z 31009KT 00/M04 A3025 RMK A01 T00031037  RH  074%=      5-min Rain = 0
KRO1 191357Z 31009KT 00/M04 A3025 RMK A01 T00031038  RH  074%=      5-min Rain = 0
KRO1 191358Z 31009KT 00/M04 A3025 RMK A01 T00041038  RH  073%=      5-min Rain = 0
KRO1 191359Z 31008KT 00/M04 A3025 RMK A01 T00041039  RH  073%=      5-min Rain = 0
KRO1 191400Z 31009KT 00/M04 A3025 RMK A01 T00041037  RH  074%=      5-min Rain = 0
KRO1 191401Z 31009KT 00/M04 A3025 RMK A01 T00041037  RH  074%=      5-min Rain = 0
KRO1 191402Z 31009KT 00/M04 A3025 RMK A01 T00041037  RH  074%=      5-min Rain = 0
KRO1 191403Z 31008KT 00/M04 A3025 RMK A01 T00041038  RH  074%=      5-min Rain = 0
KRO1 191404Z 31009KT 00/M04 A3025 RMK A01 T00041038  RH  074%=      5-min Rain = 0
KRO1 191405Z 31009KT 00/M04 A3025 RMK A01 T00041037  RH  074%=      5-min Rain = 0
KRO1 191406Z 31009KT 00/M04 A3025 RMK A01 T00041037  RH  074%=      5-min Rain = 0
KRO1 191407Z 30008KT 00/M04 A3025 RMK A01 T00041037  RH  074%=      5-min Rain = 0
KRO1 191408Z 31008KT 00/M04 A3025 RMK A01 T00041036  RH  074%=      5-min Rain = 0
KRO1 191409Z 30009KT 00/M04 A3025 RMK A01 T00041035  RH  075%=      5-min Rain = 0
KRO1 191410Z 30011KT 00/M04 A3025 RMK A01 T00041036  RH  074%=      5-min Rain = 0
KRO1 191411Z 30011KT 01/M04 A3025 RMK A01 T00051037  RH  074%=      5-min Rain = 0
KRO1 191412Z 30010KT 01/M04 A3026 RMK A01 T00051036  RH  074%=      5-min Rain = 0
KRO1 191413Z 30011KT 01/M04 A3026 RMK A01 T00051035  RH  075%=      5-min Rain = 0
KRO1 191414Z 30011KT 01/M04 A3026 RMK A01 T00051036  RH  074%=      5-min Rain = 0
KRO1 191415Z 30009KT 01/M04 A3026 RMK A01 T00051035  RH  074%=      5-min Rain = 0
KRO1 191416Z 30010KT 01/M03 A3026 RMK A01 T00061034  RH  075%=      5-min Rain = 0
KRO1 191417Z 31011KT 01/M03 A3026 RMK A01 T00061034  RH  075%=      5-min Rain = 0
KRO1 191418Z 31012KT 01/M04 A3026 RMK A01 T00061035  RH  074%=      5-min Rain = 0
KRO1 191419Z 31012KT 01/M04 A3026 RMK A01 T00061035  RH  074%=      5-min Rain = 0
KRO1 191420Z 31010KT 01/M03 A3026 RMK A01 T00071034  RH  074%=      5-min Rain = 0
KRO1 191421Z 31011KT 01/M03 A3026 RMK A01 T00071034  RH  074%=      5-min Rain = 0
KRO1 191422Z 31011KT 01/M03 A3026 RMK A01 T00071034  RH  074%=      5-min Rain = 0
KRO1 191423Z 31012KT 01/M03 A3026 RMK A01 T00071034  RH  074%=      5-min Rain = 0
KRO1 191424Z 31012KT 01/M03 A3026 RMK A01 T00071034  RH  074%=      5-min Rain = 0
KRO1 191425Z 31013KT 01/M04 A3026 RMK A01 T00081035  RH  073%=      5-min Rain = 0
KRO1 191426Z 31012KT 01/M03 A3026 RMK A01 T00081034  RH  073%=      5-min Rain = 0
KRO1 191427Z 31013KT 01/M03 A3026 RMK A01 T00081034  RH  073%=      5-min Rain = 0
KRO1 191428Z 31013KT 01/M03 A3026 RMK A01 T00091034  RH  073%=      5-min Rain = 0
KRO1 191429Z 31012KT 01/M03 A3027 RMK A01 T00091034  RH  073%=      5-min Rain = 0
KRO1 191430Z 31010KT 01/M03 A3027 RMK A01 T00091034  RH  073%=      5-min Rain = 0
KRO1 191431Z 31011KT 01/M03 A3027 RMK A01 T00091033  RH  073%=      5-min Rain = 0
KRO1 191432Z 31012KT 01/M03 A3027 RMK A01 T00091034  RH  073%=      5-min Rain = 0
KRO1 191433Z 31009KT 01/M03 A3027 RMK A01 T00091034  RH  073%=      5-min Rain = 0
KRO1 191434Z 31009KT 01/M03 A3027 RMK A01 T00101031  RH  074%=      5-min Rain = 0
KRO1 191435Z 31010KT 01/M03 A3027 RMK A01 T00101030  RH  074%=      5-min Rain = 0
KRO1 191436Z 31012KT 01/M03 A3027 RMK A01 T00101032  RH  074%=      5-min Rain = 0
KRO1 191437Z 31010KT 01/M03 A3027 RMK A01 T00101031  RH  074%=      5-min Rain = 0
KRO1 191438Z 31012KT 01/M03 A3027 RMK A01 T00101031  RH  074%=      5-min Rain = 0
KRO1 191439Z 30011KT 01/M03 A3027 RMK A01 T00101032  RH  074%=      5-min Rain = 0
KRO1 191440Z 30012KT 01/M03 A3027 RMK A01 T00101032  RH  073%=      5-min Rain = 0
KRO1 191441Z 30010KT 01/M03 A3027 RMK A01 T00111032  RH  073%=      5-min Rain = 0
KRO1 191442Z 30010KT 01/M03 A3027 RMK A01 T00111031  RH  073%=      5-min Rain = 0
KRO1 191443Z 30009KT 01/M03 A3027 RMK A01 T00121030  RH  074%=      5-min Rain = 0
KRO1 191444Z 30011KT 01/M03 A3027 RMK A01 T00121030  RH  074%=      5-min Rain = 0
KRO1 191445Z 30012KT 01/M03 A3028 RMK A01 T00121031  RH  073%=      5-min Rain = 0
KRO1 191446Z 30011KT 01/M03 A3028 RMK A01 T00131030  RH  073%=      5-min Rain = 0
KRO1 191447Z 30014KT 01/M03 A3028 RMK A01 T00131030  RH  073%=      5-min Rain = 0
KRO1 191448Z 30012KT 01/M03 A3028 RMK A01 T00131032  RH  072%=      5-min Rain = 0
KRO1 191449Z 31012KT 01/M03 A3028 RMK A01 T00141031  RH  072%=      5-min Rain = 0
KRO1 191450Z 30013KT 01/M03 A3028 RMK A01 T00141032  RH  072%=      5-min Rain = 0
KRO1 191451Z 31012KT 01/M03 A3028 RMK A01 T00141033  RH  071%=      5-min Rain = 0
KRO1 191452Z 31013KT 01/M03 A3028 RMK A01 T00141031  RH  072%=      5-min Rain = 0
KRO1 191453Z 31013KT 02/M03 A3028 RMK A01 T00151032  RH  071%=      5-min Rain = 0
KRO1 191454Z 30011KT 02/M03 A3028 RMK A01 T00151031  RH  071%=      5-min Rain = 0
KRO1 191455Z 31014KT 02/M03 A3028 RMK A01 T00161031  RH  071%=      5-min Rain = 0
KRO1 191456Z 31012KT 02/M03 A3028 RMK A01 T00161032  RH  070%=      5-min Rain = 0
KRO1 191457Z 31013G18KT 02/M03 A3028 RMK A01 T00171029  RH  071%=      5-min Rain = 0
KRO1 191458Z 31013KT 02/M03 A3028 RMK A01 T00171031  RH  071%=      5-min Rain = 0
KRO1 191459Z 30015KT 02/M03 A3028 RMK A01 T00171031  RH  070%=      5-min Rain = 0
KRO1 191500Z 31014KT 02/M03 A3028 RMK A01 T00171029  RH  071%=      5-min Rain = 0
KRO1 191501Z 31013KT 02/M03 A3028 RMK A01 T00181029  RH  071%=      5-min Rain = 0
KRO1 191502Z 30014G19KT 02/M03 A3029 RMK A01 T00181031  RH  070%=      5-min Rain = 0
KRO1 191503Z 30015KT 02/M03 A3029 RMK A01 T00181031  RH  070%=      5-min Rain = 0
KRO1 191504Z 31017KT 02/M03 A3029 RMK A01 T00181030  RH  070%=      5-min Rain = 0
KRO1 191505Z 31016KT 02/M03 A3029 RMK A01 T00191032  RH  069%=      5-min Rain = 0
KRO1 191506Z 31016KT 02/M03 A3029 RMK A01 T00191032  RH  069%=      5-min Rain = 0
KRO1 191507Z 30015KT 02/M03 A3029 RMK A01 T00191033  RH  069%=      5-min Rain = 0
KRO1 191508Z 31016KT 02/M03 A3029 RMK A01 T00191032  RH  069%=      5-min Rain = 0
KRO1 191509Z 31016KT 02/M03 A3029 RMK A01 T00201032  RH  069%=      5-min Rain = 0
KRO1 191510Z 31017KT 02/M03 A3029 RMK A01 T00201031  RH  069%=      5-min Rain = 0
KRO1 191511Z 31015KT 02/M03 A3029 RMK A01 T00201031  RH  069%=      5-min Rain = 0
KRO1 191512Z 30015KT 02/M03 A3029 RMK A01 T00211030  RH  069%=      5-min Rain = 0
KRO1 191513Z 31017KT 02/M03 A3029 RMK A01 T00211031  RH  069%=      5-min Rain = 0
KRO1 191514Z 31016KT 02/M03 A303 RMK A01 T00211032  RH  068%=      5-min Rain = 0
KRO1 191515Z 31014KT 02/M03 A303 RMK A01 T00221030  RH  068%=      5-min Rain = 0
KRO1 191516Z 31013KT 02/M03 A303 RMK A01 T00231028  RH  069%=      5-min Rain = 0
KRO1 191517Z 31016KT 02/M03 A303 RMK A01 T00231028  RH  069%=      5-min Rain = 0
KRO1 191518Z 30017KT 02/M03 A303 RMK A01 T00231029  RH  069%=      5-min Rain = 0
KRO1 191519Z 30017KT 02/M03 A303 RMK A01 T00231030  RH  068%=      5-min Rain = 0
KRO1 191520Z 30016KT 02/M03 A303 RMK A01 T00231030  RH  068%=      5-min Rain = 0
KRO1 191521Z 31017KT 02/M03 A303 RMK A01 T00231029  RH  068%=      5-min Rain = 0
KRO1 191522Z 31019KT 02/M03 A303 RMK A01 T00241030  RH  068%=      5-min Rain = 0
KRO1 191523Z 31018KT 02/M03 A303 RMK A01 T00241030  RH  068%=      5-min Rain = 0
KRO1 191524Z 30016KT 02/M03 A303 RMK A01 T00231031  RH  067%=      5-min Rain = 0
KRO1 191525Z 31017KT 02/M03 A3031 RMK A01 T00231029  RH  068%=      5-min Rain = 0
KRO1 191526Z 32016KT 02/M03 A3031 RMK A01 T00241029  RH  068%=      5-min Rain = 0
KRO1 191527Z 31016G22KT 02/M03 A3031 RMK A01 T00231030  RH  068%=      5-min Rain = 0
KRO1 191528Z 32019KT 02/M03 A3031 RMK A01 T00241028  RH  068%=      5-min Rain = 0
KRO1 191529Z 31019G24KT 02/M03 A3031 RMK A01 T00241029  RH  068%=      5-min Rain = 0
KRO1 191530Z 31015KT 02/M03 A3031 RMK A01 T00241030  RH  068%=      5-min Rain = 0
KRO1 191531Z 31018KT 02/M03 A3031 RMK A01 T00241028  RH  068%=      5-min Rain = 0
KRO1 191532Z 31017KT 02/M03 A3031 RMK A01 T00241030  RH  067%=      5-min Rain = 0
KRO1 191533Z 32020KT 03/M03 A3031 RMK A01 T00251030  RH  067%=      5-min Rain = 0
KRO1 191534Z 31019KT 03/M03 A3031 RMK A01 T00251028  RH  068%=      5-min Rain = 0
KRO1 191535Z 32017KT 03/M03 A3031 RMK A01 T00261029  RH  067%=      5-min Rain = 0
KRO1 191536Z 32016KT 03/M03 A3031 RMK A01 T00261028  RH  067%=      5-min Rain = 0
KRO1 191537Z 31017G23KT 03/M03 A3031 RMK A01 T00261028  RH  067%=      5-min Rain = 0
KRO1 191538Z 31022KT 03/M03 A3031 RMK A01 T00271029  RH  066%=      5-min Rain = 0
KRO1 191539Z 31019KT 03/M03 A3032 RMK A01 T00271030  RH  066%=      5-min Rain = 0
KRO1 191540Z 31020G26KT 03/M03 A3032 RMK A01 T00271030  RH  066%=      5-min Rain = 0
KRO1 191541Z 32020KT 03/M03 A3032 RMK A01 T00271031  RH  066%=      5-min Rain = 0
KRO1 191542Z 31019KT 03/M03 A3032 RMK A01 T00271031  RH  065%=      5-min Rain = 0
KRO1 191543Z 32017KT 03/M03 A3032 RMK A01 T00271031  RH  065%=      5-min Rain = 0
KRO1 191544Z 32015G20KT 03/M03 A3032 RMK A01 T00281031  RH  065%=      5-min Rain = 0
KRO1 191545Z 32017KT 03/M03 A3032 RMK A01 T00281030  RH  066%=      5-min Rain = 0
KRO1 191546Z 32012KT 03/M03 A3032 RMK A01 T00291028  RH  066%=      5-min Rain = 0
KRO1 191547Z 31018KT 03/M03 A3032 RMK A01 T00301026  RH  066%=      5-min Rain = 0
KRO1 191548Z 32022KT 03/M03 A3032 RMK A01 T00311030  RH  064%=      5-min Rain = 0
KRO1 191549Z 32020KT 03/M03 A3032 RMK A01 T00301031  RH  064%=      5-min Rain = 0
KRO1 191550Z 31021KT 03/M03 A3032 RMK A01 T00301032  RH  064%=      5-min Rain = 0
KRO1 191551Z 32020KT 03/M03 A3032 RMK A01 T00311031  RH  064%=      5-min Rain = 0
KRO1 191552Z 31018KT 03/M03 A3033 RMK A01 T00311031  RH  064%=      5-min Rain = 0
KRO1 191553Z 31021KT 03/M03 A3032 RMK A01 T00311033  RH  063%=      5-min Rain = 0
KRO1 191554Z 32016KT 03/M03 A3033 RMK A01 T00311032  RH  063%=      5-min Rain = 0
KRO1 191555Z 32020G26KT 03/M03 A3033 RMK A01 T00321030  RH  064%=      5-min Rain = 0
KRO1 191556Z 33019KT 03/M03 A3033 RMK A01 T00321032  RH  063%=      5-min Rain = 0
KRO1 191557Z 33018KT 03/M03 A3033 RMK A01 T00321033  RH  063%=      5-min Rain = 0
KRO1 191558Z 34017KT 03/M03 A3033 RMK A01 T00321031  RH  063%=      5-min Rain = 0
KRO1 191559Z 32017KT 03/M03 A3033 RMK A01 T00331031  RH  063%=      5-min Rain = 0
KRO1 191600Z 33019KT 03/M03 A3033 RMK A01 T00331032  RH  063%=      5-min Rain = 0
KRO1 191601Z 32018KT 03/M03 A3033 RMK A01 T00331032  RH  063%=      5-min Rain = 0
KRO1 191602Z 31020KT 03/M03 A3033 RMK A01 T00331032  RH  062%=      5-min Rain = 0
KRO1 191603Z 32017KT 03/M03 A3033 RMK A01 T00331033  RH  062%=      5-min Rain = 0
KRO1 191604Z 33019KT 03/M03 A3033 RMK A01 T00331033  RH  062%=      5-min Rain = 0
KRO1 191605Z 33016G21KT 03/M03 A3033 RMK A01 T00331034  RH  061%=      5-min Rain = 0
KRO1 191606Z 33015KT 03/M03 A3033 RMK A01 T00331032  RH  062%=      5-min Rain = 0
KRO1 191607Z 33018KT 03/M03 A3033 RMK A01 T00341031  RH  062%=      5-min Rain = 0
KRO1 191608Z 32016KT 04/M03 A3033 RMK A01 T00351032  RH  062%=      5-min Rain = 0
KRO1 191609Z 33017KT 03/M03 A3033 RMK A01 T00341034  RH  061%=      5-min Rain = 0
KRO1 191610Z 33017G22KT 04/M03 A3033 RMK A01 T00351031  RH  062%=      5-min Rain = 0
KRO1 191611Z 32020KT 03/M03 A3033 RMK A01 T00341032  RH  062%=      5-min Rain = 0
KRO1 191612Z 33016KT 04/M03 A3033 RMK A01 T00351032  RH  062%=      5-min Rain = 0
KRO1 191613Z 33016KT 04/M03 A3033 RMK A01 T00361029  RH  062%=      5-min Rain = 0
KRO1 191614Z 33019KT 04/M03 A3033 RMK A01 T00361031  RH  062%=      5-min Rain = 0
KRO1 191615Z 33019KT 04/M03 A3033 RMK A01 T00361032  RH  061%=      5-min Rain = 0
KRO1 191616Z 34016G21KT 04/M03 A3033 RMK A01 T00361032  RH  061%=      5-min Rain = 0
KRO1 191617Z 33016G21KT 04/M03 A3033 RMK A01 T00361032  RH  061%=      5-min Rain = 0
KRO1 191618Z 33012KT 04/M03 A3033 RMK A01 T00361031  RH  061%=      5-min Rain = 0
KRO1 191619Z 32014KT 04/M03 A3033 RMK A01 T00391025  RH  063%=      5-min Rain = 0
KRO1 191620Z 33016G21KT 04/M03 A3033 RMK A01 T00391031  RH  061%=      5-min Rain = 0
KRO1 191621Z 33019KT 04/M03 A3033 RMK A01 T00381033  RH  060%=      5-min Rain = 0
KRO1 191622Z 33019KT 04/M04 A3033 RMK A01 T00371036  RH  059%=      5-min Rain = 0
KRO1 191623Z 33017KT 04/M03 A3033 RMK A01 T00371033  RH  060%=      5-min Rain = 0
KRO1 191624Z 33017KT 04/M03 A3033 RMK A01 T00371031  RH  061%=      5-min Rain = 0
KRO1 191625Z 32016KT 04/M03 A3033 RMK A01 T00391028  RH  062%=      5-min Rain = 0
KRO1 191626Z 33019KT 04/M03 A3034 RMK A01 T00401030  RH  060%=      5-min Rain = 0
KRO1 191627Z 33017KT 04/M03 A3034 RMK A01 T00411030  RH  060%=      5-min Rain = 0
KRO1 191628Z 33016KT 04/M03 A3033 RMK A01 T00421030  RH  060%=      5-min Rain = 0
KRO1 191629Z 33014G19KT 04/M03 A3033 RMK A01 T00421028  RH  060%=      5-min Rain = 0
KRO1 191630Z 33015KT 04/M03 A3033 RMK A01 T00441026  RH  061%=      5-min Rain = 0
KRO1 191631Z 33015KT 04/M03 A3033 RMK A01 T00441027  RH  060%=      5-min Rain = 0
KRO1 191632Z 33018KT 05/M03 A3033 RMK A01 T00451029  RH  059%=      5-min Rain = 0
KRO1 191633Z 33019KT 04/M03 A3034 RMK A01 T00431033  RH  058%=      5-min Rain = 0
KRO1 191634Z 33021KT 04/M03 A3034 RMK A01 T00431034  RH  058%=      5-min Rain = 0
KRO1 191635Z 33020KT 04/M04 A3034 RMK A01 T00421035  RH  057%=      5-min Rain = 0
KRO1 191636Z 33019KT 04/M04 A3034 RMK A01 T00421035  RH  057%=      5-min Rain = 0
KRO1 191637Z 32018KT 04/M03 A3034 RMK A01 T00421034  RH  058%=      5-min Rain = 0
KRO1 191638Z 33020KT 04/M04 A3034 RMK A01 T00421036  RH  057%=      5-min Rain = 0
KRO1 191639Z 33018G23KT 04/M03 A3034 RMK A01 T00421034  RH  058%=      5-min Rain = 0
KRO1 191640Z 33021KT 04/M04 A3034 RMK A01 T00431035  RH  057%=      5-min Rain = 0
KRO1 191641Z 33022KT 04/M04 A3033 RMK A01 T00421039  RH  056%=      5-min Rain = 0
KRO1 191642Z 32020KT 04/M04 A3033 RMK A01 T00411039  RH  056%=      5-min Rain = 0
KRO1 191643Z 33019KT 04/M04 A3033 RMK A01 T00421038  RH  056%=      5-min Rain = 0
KRO1 191644Z 33019KT 04/M04 A3033 RMK A01 T00431036  RH  057%=      5-min Rain = 0
KRO1 191645Z 33018KT 04/M04 A3033 RMK A01 T00431036  RH  056%=      5-min Rain = 0
KRO1 191646Z 32021KT 05/M03 A3033 RMK A01 T00451034  RH  057%=      5-min Rain = 0
KRO1 191647Z 32019KT 05/M04 A3033 RMK A01 T00461036  RH  055%=      5-min Rain = 0
KRO1 191648Z 32019G24KT 05/M04 A3033 RMK A01 T00451038  RH  055%=      5-min Rain = 0
KRO1 191649Z 33019G25KT 05/M04 A3033 RMK A01 T00451036  RH  055%=      5-min Rain = 0
KRO1 191650Z 33020KT 05/M04 A3033 RMK A01 T00451037  RH  055%=      5-min Rain = 0
KRO1 191651Z 33018KT 05/M04 A3033 RMK A01 T00451038  RH  055%=      5-min Rain = 0
KRO1 191652Z 34016KT 05/M03 A3033 RMK A01 T00461033  RH  056%=      5-min Rain = 0
KRO1 191653Z 33016KT 05/M03 A3033 RMK A01 T00491032  RH  056%=      5-min Rain = 0
KRO1 191654Z 32016KT 05/M03 A3033 RMK A01 T00501031  RH  056%=      5-min Rain = 0
KRO1 191655Z 33017KT 05/M03 A3033 RMK A01 T00511031  RH  055%=      5-min Rain = 0
KRO1 191656Z 33017G22KT 05/M03 A3033 RMK A01 T00521033  RH  054%=      5-min Rain = 0
KRO1 191657Z 34021G31KT 05/M04 A3033 RMK A01 T00511036  RH  053%=      5-min Rain = 0
KRO1 191658Z 34025KT 05/M04 A3033 RMK A01 T00501041  RH  052%=      5-min Rain = 0
KRO1 191659Z 34024KT 05/M04 A3033 RMK A01 T00481041  RH  052%=      5-min Rain = 0
KRO1 191700Z 33021G26KT 05/M04 A3033 RMK A01 T00501037  RH  053%=      5-min Rain = 0
KRO1 191701Z 34022KT 05/M04 A3033 RMK A01 T00511040  RH  052%=      5-min Rain = 0
KRO1 191702Z 34021G26KT 05/M04 A3033 RMK A01 T00491042  RH  052%=      5-min Rain = 0
KRO1 191703Z 33024KT 05/M04 A3033 RMK A01 T00491042  RH  052%=      5-min Rain = 0
KRO1 191704Z 34020KT 05/M04 A3033 RMK A01 T00491042  RH  052%=      5-min Rain = 0
KRO1 191705Z 34019KT 05/M04 A3033 RMK A01 T00491040  RH  052%=      5-min Rain = 0
KRO1 191706Z 33022KT 05/M04 A3033 RMK A01 T00501039  RH  053%=      5-min Rain = 0
KRO1 191707Z 33020KT 05/M04 A3033 RMK A01 T00501040  RH  052%=      5-min Rain = 0
KRO1 191708Z 33021G27KT 05/M04 A3033 RMK A01 T00501041  RH  052%=      5-min Rain = 0
KRO1 191709Z 33020KT 05/M04 A3033 RMK A01 T00501041  RH  052%=      5-min Rain = 0
KRO1 191710Z 34019KT 05/M04 A3033 RMK A01 T00511039  RH  052%=      5-min Rain = 0
KRO1 191711Z 33020KT 05/M04 A3033 RMK A01 T00511039  RH  052%=      5-min Rain = 0
KRO1 191712Z 34021G26KT 05/M04 A3033 RMK A01 T00521038  RH  052%=      5-min Rain = 0
KRO1 191713Z 34022KT 05/M04 A3033 RMK A01 T00521040  RH  051%=      5-min Rain = 0
KRO1 191714Z 34020KT 05/M04 A3033 RMK A01 T00511038  RH  052%=      5-min Rain = 0
KRO1 191715Z 34022G27KT 05/M04 A3033 RMK A01 T00531037  RH  052%=      5-min Rain = 0
KRO1 191716Z 34021KT 05/M04 A3033 RMK A01 T00541036  RH  052%=      5-min Rain = 0
KRO1 191717Z 34019KT 06/M03 A3033 RMK A01 T00551034  RH  053%=      5-min Rain = 0
KRO1 191718Z 33017KT 06/M04 A3033 RMK A01 T00561036  RH  052%=      5-min Rain = 0
KRO1 191719Z 34019KT 06/M04 A3033 RMK A01 T00551035  RH  052%=      5-min Rain = 0
KRO1 191720Z 34018KT 06/M04 A3033 RMK A01 T00551037  RH  051%=      5-min Rain = 0
KRO1 191721Z 34017KT 05/M04 A3033 RMK A01 T00541039  RH  051%=      5-min Rain = 0
KRO1 191722Z 34017KT 05/M04 A3033 RMK A01 T00541035  RH  053%=      5-min Rain = 0
KRO1 191723Z 34017G24KT 06/M03 A3033 RMK A01 T00571031  RH  053%=      5-min Rain = 0
KRO1 191724Z 34023KT 06/M04 A3033 RMK A01 T00581035  RH  051%=      5-min Rain = 0
KRO1 191725Z 33022KT 06/M04 A3033 RMK A01 T00561038  RH  050%=      5-min Rain = 0
KRO1 191726Z 34020KT 06/M04 A3033 RMK A01 T00561039  RH  051%=      5-min Rain = 0
KRO1 191727Z 34021KT 06/M04 A3033 RMK A01 T00571039  RH  050%=      5-min Rain = 0
KRO1 191728Z 35021KT 06/M04 A3033 RMK A01 T00561040  RH  050%=      5-min Rain = 0
KRO1 191729Z 34021KT 06/M04 A3033 RMK A01 T00561041  RH  050%=      5-min Rain = 0
KRO1 191730Z 34021KT 06/M04 A3033 RMK A01 T00551040  RH  050%=      5-min Rain = 0
KRO1 191731Z 34022KT 06/M04 A3033 RMK A01 T00551040  RH  050%=      5-min Rain = 0
KRO1 191732Z 34019KT 06/M04 A3033 RMK A01 T00551039  RH  050%=      5-min Rain = 0
KRO1 191733Z 34017KT 06/M04 A3033 RMK A01 T00561039  RH  050%=      5-min Rain = 0
KRO1 191734Z 34020KT 06/M04 A3033 RMK A01 T00571038  RH  050%=      5-min Rain = 0
KRO1 191735Z 34019KT 06/M04 A3033 RMK A01 T00561040  RH  050%=      5-min Rain = 0
KRO1 191736Z 34020KT 06/M04 A3033 RMK A01 T00561039  RH  050%=      5-min Rain = 0
KRO1 191737Z 34017KT 06/M04 A3033 RMK A01 T00561039  RH  050%=      5-min Rain = 0
KRO1 191738Z 33014KT 06/M04 A3033 RMK A01 T00581035  RH  051%=      5-min Rain = 0
KRO1 191739Z 33015KT 06/M03 A3033 RMK A01 T00611033  RH  051%=      5-min Rain = 0
KRO1 191740Z 34017KT 06/M03 A3033 RMK A01 T00621033  RH  051%=      5-min Rain = 0
KRO1 191741Z 33017KT 06/M03 A3033 RMK A01 T00621034  RH  050%=      5-min Rain = 0
KRO1 191742Z 33018KT 06/M04 A3033 RMK A01 T00621035  RH  050%=      5-min Rain = 0
KRO1 191743Z 32015KT 06/M04 A3033 RMK A01 T00621037  RH  049%=      5-min Rain = 0
KRO1 191744Z 32019G24KT 06/M04 A3033 RMK A01 T00611037  RH  049%=      5-min Rain = 0
KRO1 191745Z 33017KT 06/M04 A3033 RMK A01 T00601038  RH  050%=      5-min Rain = 0
KRO1 191746Z 32017KT 06/M04 A3033 RMK A01 T00601039  RH  049%=      5-min Rain = 0
KRO1 191747Z 32016KT 06/M04 A3033 RMK A01 T00591038  RH  050%=      5-min Rain = 0
KRO1 191748Z 32016KT 06/M04 A3033 RMK A01 T00611035  RH  050%=      5-min Rain = 0
KRO1 191749Z 32017KT 06/M03 A3033 RMK A01 T00641034  RH  050%=      5-min Rain = 0
KRO1 191750Z 33015KT 07/M04 A3033 RMK A01 T00651035  RH  049%=      5-min Rain = 0
KRO1 191751Z 32016G23KT 06/M04 A3033 RMK A01 T00621041  RH  048%=      5-min Rain = 0
KRO1 191752Z 32019G27KT 06/M04 A3033 RMK A01 T00611040  RH  048%=      5-min Rain = 0
KRO1 191753Z 33023KT 06/M04 A3033 RMK A01 T00611041  RH  048%=      5-min Rain = 0
KRO1 191754Z 33020KT 06/M04 A3033 RMK A01 T00601040  RH  049%=      5-min Rain = 0
KRO1 191755Z 34020KT 06/M04 A3033 RMK A01 T00631037  RH  049%=      5-min Rain = 0
KRO1 191756Z 34017KT 06/M04 A3033 RMK A01 T00631039  RH  048%=      5-min Rain = 0
KRO1 191757Z 33016KT 06/M04 A3033 RMK A01 T00641036  RH  049%=      5-min Rain = 0
KRO1 191758Z 33019KT 07/M04 A3033 RMK A01 T00651038  RH  048%=      5-min Rain = 0
KRO1 191759Z 33019KT 06/M04 A3033 RMK A01 T00621041  RH  047%=      5-min Rain = 0
KRO1 191800Z 32017G23KT 06/M04 A3033 RMK A01 T00621040  RH  048%=      5-min Rain = 0
KRO1 191801Z 33015G20KT 06/M04 A3033 RMK A01 T00641036  RH  049%=      5-min Rain = 0
KRO1 191802Z 32020G25KT 07/M04 A3033 RMK A01 T00651037  RH  048%=      5-min Rain = 0
KRO1 191803Z 33017KT 07/M04 A3033 RMK A01 T00661036  RH  048%=      5-min Rain = 0
KRO1 191804Z 32018KT 07/M03 A3032 RMK A01 T00691034  RH  048%=      5-min Rain = 0
KRO1 191805Z 33020KT 07/M04 A3032 RMK A01 T00681038  RH  047%=      5-min Rain = 0
KRO1 191806Z 34017KT 07/M04 A3032 RMK A01 T00651042  RH  046%=      5-min Rain = 0
KRO1 191807Z 33016KT 06/M04 A3032 RMK A01 T00621042  RH  047%=      5-min Rain = 0
KRO1 191808Z 33017KT 06/M04 A3032 RMK A01 T00641037  RH  049%=      5-min Rain = 0
KRO1 191809Z 32018KT 07/M04 A3032 RMK A01 T00661038  RH  047%=      5-min Rain = 0
KRO1 191810Z 33017KT 07/M04 A3032 RMK A01 T00651039  RH  047%=      5-min Rain = 0
KRO1 191811Z 34019KT 07/M04 A3032 RMK A01 T00661037  RH  048%=      5-min Rain = 0
KRO1 191812Z 34020KT 07/M04 A3032 RMK A01 T00681036  RH  048%=      5-min Rain = 0
KRO1 191813Z 34021KT 07/M04 A3032 RMK A01 T00691037  RH  047%=      5-min Rain = 0
KRO1 191814Z 34020KT 07/M04 A3032 RMK A01 T00671038  RH  047%=      5-min Rain = 0
KRO1 191815Z 33018KT 07/M04 A3032 RMK A01 T00681035  RH  048%=      5-min Rain = 0
KRO1 191816Z 33020KT 07/M04 A3032 RMK A01 T00701035  RH  047%=      5-min Rain = 0
KRO1 191817Z 33021KT 07/M04 A3032 RMK A01 T00681038  RH  047%=      5-min Rain = 0
KRO1 191818Z 34021KT 07/M04 A3032 RMK A01 T00681037  RH  047%=      5-min Rain = 0
KRO1 191819Z 34017KT 07/M04 A3031 RMK A01 T00671038  RH  047%=      5-min Rain = 0
KRO1 191820Z 33016KT 07/M03 A3031 RMK A01 T00681034  RH  048%=      5-min Rain = 0
KRO1 191821Z 32015KT 07/M03 A3031 RMK A01 T00721030  RH  048%=      5-min Rain = 0
KRO1 191822Z 33016KT 07/M03 A3031 RMK A01 T00731031  RH  048%=      5-min Rain = 0
KRO1 191823Z 33016KT 08/M03 A3031 RMK A01 T00761028  RH  048%=      5-min Rain = 0
KRO1 191824Z 34018KT 08/M03 A3031 RMK A01 T00751033  RH  046%=      5-min Rain = 0
KRO1 191825Z 32017KT 07/M03 A3031 RMK A01 T00741032  RH  047%=      5-min Rain = 0
KRO1 191826Z 31022KT 07/M04 A3031 RMK A01 T00741035  RH  046%=      5-min Rain = 0
KRO1 191827Z 32021KT 07/M04 A3031 RMK A01 T00711037  RH  046%=      5-min Rain = 0
KRO1 191828Z 32019G24KT 07/M04 A3031 RMK A01 T00701037  RH  046%=      5-min Rain = 0
KRO1 191829Z 31016KT 07/M04 A3031 RMK A01 T00701036  RH  047%=      5-min Rain = 0
KRO1 191830Z 31017KT 07/M04 A3031 RMK A01 T00701035  RH  047%=      5-min Rain = 0
KRO1 191831Z 32018KT 07/M03 A3031 RMK A01 T00711034  RH  047%=      5-min Rain = 0
KRO1 191832Z 33018KT 07/M03 A303 RMK A01 T00711034  RH  047%=      5-min Rain = 0
KRO1 191833Z 34018KT 07/M03 A303 RMK A01 T00731031  RH  048%=      5-min Rain = 0
KRO1 191834Z 34018KT 07/M03 A303 RMK A01 T00741032  RH  047%=      5-min Rain = 0
KRO1 191835Z 33019KT 07/M03 A303 RMK A01 T00741033  RH  047%=      5-min Rain = 0
KRO1 191836Z 34020KT 07/M03 A303 RMK A01 T00741034  RH  046%=      5-min Rain = 0
KRO1 191837Z 34018G23KT 07/M03 A303 RMK A01 T00721034  RH  047%=      5-min Rain = 0
KRO1 191838Z 32020G25KT 08/M03 A303 RMK A01 T00761029  RH  047%=      5-min Rain = 0
KRO1 191839Z 32019KT 08/M03 A303 RMK A01 T00771032  RH  046%=      5-min Rain = 0
KRO1 191840Z 32019G24KT 08/M03 A303 RMK A01 T00761034  RH  046%=      5-min Rain = 0
KRO1 191841Z 33022KT 08/M03 A303 RMK A01 T00761033  RH  046%=      5-min Rain = 0
KRO1 191842Z 32019KT 08/M03 A303 RMK A01 T00751034  RH  046%=      5-min Rain = 0
KRO1 191843Z 32022G27KT 07/M03 A303 RMK A01 T00741034  RH  046%=      5-min Rain = 0
KRO1 191844Z 33023KT 07/M03 A303 RMK A01 T00741034  RH  046%=      5-min Rain = 0
KRO1 191845Z 33021KT 07/M04 A303 RMK A01 T00741035  RH  046%=      5-min Rain = 0
KRO1 191846Z 33021KT 08/M03 A303 RMK A01 T00751034  RH  046%=      5-min Rain = 0
KRO1 191847Z 33021KT 07/M04 A3029 RMK A01 T00741037  RH  045%=      5-min Rain = 0
KRO1 191848Z 33021KT 07/M04 A3029 RMK A01 T00741035  RH  046%=      5-min Rain = 0
KRO1 191849Z 33023KT 08/M04 A3029 RMK A01 T00751035  RH  046%=      5-min Rain = 0
KRO1 191850Z 33022KT 08/M04 A3029 RMK A01 T00751035  RH  046%=      5-min Rain = 0
KRO1 191851Z 33020KT 07/M04 A3029 RMK A01 T00741036  RH  046%=      5-min Rain = 0
KRO1 191852Z 32016KT 08/M03 A3029 RMK A01 T00761031  RH  047%=      5-min Rain = 0
KRO1 191853Z 33018KT 08/M03 A3029 RMK A01 T00801028  RH  046%=      5-min Rain = 0
KRO1 191854Z 33020KT 08/M03 A3029 RMK A01 T00811032  RH  045%=      5-min Rain = 0
KRO1 191855Z 33017KT 08/M03 A3029 RMK A01 T00781034  RH  045%=      5-min Rain = 0
KRO1 191856Z 33018KT 08/M03 A3029 RMK A01 T00781033  RH  045%=      5-min Rain = 0
KRO1 191857Z 32016G21KT 08/M03 A3029 RMK A01 T00791031  RH  046%=      5-min Rain = 0
KRO1 191858Z 32020KT 08/M03 A3029 RMK A01 T00791034  RH  045%=      5-min Rain = 0
KRO1 191859Z 32021KT 08/M04 A3029 RMK A01 T00781035  RH  045%=      5-min Rain = 0
KRO1 191900Z 33020KT 08/M03 A3029 RMK A01 T00801032  RH  045%=      5-min Rain = 0
KRO1 191901Z 32018KT 08/M04 A3029 RMK A01 T00801035  RH  044%=      5-min Rain = 0
KRO1 191902Z 32019KT 08/M03 A3029 RMK A01 T00791033  RH  045%=      5-min Rain = 0
KRO1 191903Z 32019KT 08/M03 A3029 RMK A01 T00801033  RH  045%=      5-min Rain = 0
KRO1 191904Z 32019KT 08/M03 A3029 RMK A01 T00801032  RH  045%=      5-min Rain = 0
KRO1 191905Z 32019KT 08/M03 A3029 RMK A01 T00811034  RH  044%=      5-min Rain = 0
KRO1 191906Z 32019KT 08/M03 A3029 RMK A01 T00821032  RH  045%=      5-min Rain = 0
KRO1 191907Z 31016KT 08/M03 A3028 RMK A01 T00821032  RH  044%=      5-min Rain = 0
KRO1 191908Z 31015KT 09/M03 A3028 RMK A01 T00851028  RH  045%=      5-min Rain = 0
KRO1 191909Z 31016G22KT 09/M03 A3028 RMK A01 T00871028  RH  044%=      5-min Rain = 0
KRO1 191910Z 31019KT 09/M03 A3028 RMK A01 T00881029  RH  044%=      5-min Rain = 0
KRO1 191911Z 32019KT 09/M03 A3028 RMK A01 T00861033  RH  043%=      5-min Rain = 0
KRO1 191912Z 32019G24KT 08/M03 A3028 RMK A01 T00831033  RH  044%=      5-min Rain = 0
KRO1 191913Z 32021KT 08/M03 A3028 RMK A01 T00841033  RH  044%=      5-min Rain = 0
KRO1 191914Z 34018KT 08/M03 A3029 RMK A01 T00831032  RH  044%=      5-min Rain = 0
KRO1 191915Z 34017KT 08/M03 A3029 RMK A01 T00841030  RH  044%=      5-min Rain = 0
KRO1 191916Z 33016KT 08/M03 A3029 RMK A01 T00841031  RH  044%=      5-min Rain = 0
KRO1 191917Z 33015G21KT 08/M03 A3028 RMK A01 T00841029  RH  045%=      5-min Rain = 0
KRO1 191918Z 33016KT 09/M03 A3028 RMK A01 T00851030  RH  044%=      5-min Rain = 0
KRO1 191919Z 32017G22KT 08/M03 A3028 RMK A01 T00841031  RH  044%=      5-min Rain = 0
KRO1 191920Z 33018KT 09/M03 A3028 RMK A01 T00851031  RH  044%=      5-min Rain = 0
KRO1 191921Z 33016KT 09/M03 A3028 RMK A01 T00851031  RH  044%=      5-min Rain = 0
KRO1 191922Z 32016KT 08/M03 A3028 RMK A01 T00841032  RH  044%=      5-min Rain = 0
KRO1 191923Z 31018KT 09/M03 A3028 RMK A01 T00851029  RH  044%=      5-min Rain = 0
KRO1 191924Z 31016KT 09/M03 A3028 RMK A01 T00851031  RH  044%=      5-min Rain = 0
KRO1 191925Z 32013KT 08/M03 A3028 RMK A01 T00841031  RH  044%=      5-min Rain = 0
KRO1 191926Z 32015G21KT 09/M03 A3028 RMK A01 T00871027  RH  045%=      5-min Rain = 0
KRO1 191927Z 32018KT 09/M03 A3028 RMK A01 T00891030  RH  043%=      5-min Rain = 0
KRO1 191928Z 33016G23KT 09/M03 A3028 RMK A01 T00881033  RH  043%=      5-min Rain = 0
KRO1 191929Z 34022KT 09/M03 A3028 RMK A01 T00871034  RH  042%=      5-min Rain = 0
KRO1 191930Z 34021KT 09/M03 A3028 RMK A01 T00871034  RH  043%=      5-min Rain = 0
KRO1 191931Z 32018KT 09/M03 A3028 RMK A01 T00881032  RH  043%=      5-min Rain = 0
KRO1 191932Z 33017KT 09/M03 A3028 RMK A01 T00881032  RH  042%=      5-min Rain = 0
KRO1 191933Z 34018G23KT 09/M03 A3028 RMK A01 T00901030  RH  043%=      5-min Rain = 0
KRO1 191934Z 34021KT 09/M03 A3028 RMK A01 T00911032  RH  042%=      5-min Rain = 0
KRO1 191935Z 35021KT 09/M03 A3028 RMK A01 T00901033  RH  042%=      5-min Rain = 0
KRO1 191936Z 34019KT 09/M03 A3028 RMK A01 T00901030  RH  043%=      5-min Rain = 0
KRO1 191937Z 34020KT 09/M03 A3028 RMK A01 T00901032  RH  042%=      5-min Rain = 0
KRO1 191938Z 34020KT 09/M03 A3028 RMK A01 T00881034  RH  042%=      5-min Rain = 0
KRO1 191939Z 33015KT 09/M03 A3028 RMK A01 T00871034  RH  042%=      5-min Rain = 0
KRO1 191940Z 33015KT 09/M03 A3028 RMK A01 T00891031  RH  043%=      5-min Rain = 0
KRO1 191941Z 33017KT 09/M03 A3028 RMK A01 T00901031  RH  042%=      5-min Rain = 0
KRO1 191942Z 34017KT 09/M03 A3028 RMK A01 T00931029  RH  042%=      5-min Rain = 0
KRO1 191943Z 33017KT 09/M03 A3028 RMK A01 T00931030  RH  042%=      5-min Rain = 0
KRO1 191944Z 34018KT 09/M03 A3028 RMK A01 T00921031  RH  042%=      5-min Rain = 0
KRO1 191945Z 34017KT 09/M03 A3028 RMK A01 T00921032  RH  041%=      5-min Rain = 0
KRO1 191946Z 33016G21KT 09/M03 A3028 RMK A01 T00911034  RH  041%=      5-min Rain = 0
KRO1 191947Z 33016G23KT 09/M03 A3028 RMK A01 T00901033  RH  042%=      5-min Rain = 0
KRO1 191948Z 33020KT 09/M03 A3028 RMK A01 T00921032  RH  042%=      5-min Rain = 0
KRO1 191949Z 34020KT 09/M03 A3028 RMK A01 T00921032  RH  042%=      5-min Rain = 0
KRO1 191950Z 33017KT 09/M03 A3027 RMK A01 T00911034  RH  041%=      5-min Rain = 0
KRO1 191951Z 34016KT 09/M03 A3027 RMK A01 T00911033  RH  042%=      5-min Rain = 0
KRO1 191952Z 33019KT 09/M03 A3027 RMK A01 T00931031  RH  042%=      5-min Rain = 0
KRO1 191953Z 34019KT 09/M03 A3027 RMK A01 T00941033  RH  041%=      5-min Rain = 0
KRO1 191954Z 34020KT 09/M04 A3027 RMK A01 T00931035  RH  040%=      5-min Rain = 0
KRO1 191955Z 32019KT 09/M03 A3027 RMK A01 T00941033  RH  041%=      5-min Rain = 0
KRO1 191956Z 34018KT 10/M03 A3027 RMK A01 T00951033  RH  040%=      5-min Rain = 0
KRO1 191957Z 33019KT 10/M03 A3027 RMK A01 T00961032  RH  040%=      5-min Rain = 0
KRO1 191958Z 32017G23KT 10/M03 A3027 RMK A01 T00961032  RH  040%=      5-min Rain = 0
KRO1 191959Z 32018KT 10/M03 A3027 RMK A01 T00971032  RH  040%=      5-min Rain = 0
KRO1 192000Z 33017G23KT 10/M03 A3027 RMK A01 T00971034  RH  040%=      5-min Rain = 0
KRO1 192001Z 34019KT 10/M03 A3027 RMK A01 T00971031  RH  040%=      5-min Rain = 0
KRO1 192002Z 34021KT 10/M03 A3027 RMK A01 T00991032  RH  040%=      5-min Rain = 0
KRO1 192003Z 33019KT 10/M03 A3027 RMK A01 T00971034  RH  040%=      5-min Rain = 0
KRO1 192004Z 33019KT 10/M03 A3027 RMK A01 T00961034  RH  040%=      5-min Rain = 0
KRO1 192005Z 33021KT 10/M03 A3027 RMK A01 T00961034  RH  040%=      5-min Rain = 0
KRO1 192006Z 32017KT 10/M04 A3027 RMK A01 T00951035  RH  040%=      5-min Rain = 0
KRO1 192007Z 33016KT 10/M03 A3027 RMK A01 T00961031  RH  040%=      5-min Rain = 0
KRO1 192008Z 33016KT 10/M03 A3027 RMK A01 T00971033  RH  040%=      5-min Rain = 0
KRO1 192009Z 34017G22KT 10/M03 A3027 RMK A01 T00971031  RH  040%=      5-min Rain = 0
KRO1 192010Z 33018KT 10/M03 A3027 RMK A01 T00991030  RH  040%=      5-min Rain = 0
KRO1 192011Z 32020G25KT 10/M03 A3027 RMK A01 T01001033  RH  039%=      5-min Rain = 0
KRO1 192012Z 32021KT 10/M03 A3027 RMK A01 T01001034  RH  039%=      5-min Rain = 0
KRO1 192013Z 32024KT 10/M03 A3027 RMK A01 T00991034  RH  039%=      5-min Rain = 0
KRO1 192014Z 34021KT 10/M04 A3027 RMK A01 T00991036  RH  039%=      5-min Rain = 0
KRO1 192015Z 33023KT 10/M03 A3027 RMK A01 T00981034  RH  039%=      5-min Rain = 0
KRO1 192016Z 33020KT 10/M04 A3027 RMK A01 T00981035  RH  039%=      5-min Rain = 0
KRO1 192017Z 33021KT 10/M03 A3026 RMK A01 T00981033  RH  040%=      5-min Rain = 0
KRO1 192018Z 33019KT 10/M03 A3027 RMK A01 T00991034  RH  039%=      5-min Rain = 0
KRO1 192019Z 32022KT 10/M04 A3026 RMK A01 T01001035  RH  039%=      5-min Rain = 0
KRO1 192020Z 32022KT 10/M03 A3027 RMK A01 T01011034  RH  039%=      5-min Rain = 0
KRO1 192021Z 33021KT 10/M03 A3027 RMK A01 T01021034  RH  038%=      5-min Rain = 0
KRO1 192022Z 33022KT 10/M04 A3027 RMK A01 T01001036  RH  038%=      5-min Rain = 0
KRO1 192023Z 34019KT 10/M04 A3026 RMK A01 T00991036  RH  038%=      5-min Rain = 0
KRO1 192024Z 34018KT 10/M04 A3026 RMK A01 T00991036  RH  039%=      5-min Rain = 0
KRO1 192025Z 35020KT 10/M04 A3026 RMK A01 T00991035  RH  039%=      5-min Rain = 0
KRO1 192026Z 35019KT 10/M03 A3026 RMK A01 T01001033  RH  039%=      5-min Rain = 0
KRO1 192027Z 34017KT 10/M03 A3026 RMK A01 T01021032  RH  039%=      5-min Rain = 0
KRO1 192028Z 34018KT 10/M03 A3026 RMK A01 T01021033  RH  038%=      5-min Rain = 0
KRO1 192029Z 33019G24KT 10/M03 A3026 RMK A01 T01021033  RH  038%=      5-min Rain = 0
KRO1 192030Z 33022KT 10/M04 A3026 RMK A01 T01031036  RH  037%=      5-min Rain = 0
KRO1 192031Z 32019KT 10/M04 A3026 RMK A01 T01021038  RH  037%=      5-min Rain = 0
KRO1 192032Z 33020KT 10/M04 A3026 RMK A01 T01031035  RH  038%=      5-min Rain = 0
KRO1 192033Z 33022KT 10/M04 A3026 RMK A01 T01031037  RH  037%=      5-min Rain = 0
KRO1 192034Z 33020KT 10/M04 A3026 RMK A01 T01011039  RH  037%=      5-min Rain = 0
KRO1 192035Z 33020KT 10/M04 A3026 RMK A01 T01011036  RH  038%=      5-min Rain = 0
KRO1 192036Z 34020KT 10/M04 A3026 RMK A01 T01021037  RH  038%=      5-min Rain = 0
KRO1 192037Z 34023KT 10/M04 A3026 RMK A01 T01021036  RH  038%=      5-min Rain = 0
KRO1 192038Z 33017KT 10/M04 A3026 RMK A01 T01031035  RH  038%=      5-min Rain = 0
KRO1 192039Z 32018KT 11/M03 A3026 RMK A01 T01061032  RH  038%=      5-min Rain = 0
KRO1 192040Z 33017KT 11/M03 A3026 RMK A01 T01071032  RH  038%=      5-min Rain = 0
KRO1 192041Z 32015KT 11/M03 A3026 RMK A01 T01071033  RH  037%=      5-min Rain = 0
KRO1 192042Z 33018KT 11/M03 A3026 RMK A01 T01071033  RH  037%=      5-min Rain = 0
KRO1 192043Z 33020KT 11/M04 A3026 RMK A01 T01061036  RH  037%=      5-min Rain = 0
KRO1 192044Z 33017KT 11/M03 A3026 RMK A01 T01061034  RH  037%=      5-min Rain = 0
KRO1 192045Z 32018KT 11/M03 A3026 RMK A01 T01071034  RH  037%=      5-min Rain = 0
KRO1 192046Z 32018G23KT 11/M03 A3026 RMK A01 T01071034  RH  037%=      5-min Rain = 0
KRO1 192047Z 34020KT 11/M04 A3026 RMK A01 T01071035  RH  037%=      5-min Rain = 0
KRO1 192048Z 34020KT 11/M04 A3026 RMK A01 T01051036  RH  037%=      5-min Rain = 0
KRO1 192049Z 34022KT 10/M04 A3026 RMK A01 T01041038  RH  037%=      5-min Rain = 0
KRO1 192050Z 34021KT 10/M04 A3026 RMK A01 T01031038  RH  037%=      5-min Rain = 0
KRO1 192051Z 34020KT 10/M04 A3026 RMK A01 T01031037  RH  037%=      5-min Rain = 0
KRO1 192052Z 33021KT 10/M04 A3026 RMK A01 T01041037  RH  037%=      5-min Rain = 0
KRO1 192053Z 34021KT 10/M04 A3026 RMK A01 T01041037  RH  037%=      5-min Rain = 0
KRO1 192054Z 33017KT 10/M04 A3026 RMK A01 T01031037  RH  037%=      5-min Rain = 0
KRO1 192055Z 33019KT 10/M04 A3026 RMK A01 T01041036  RH  037%=      5-min Rain = 0
KRO1 192056Z 33021KT 11/M04 A3026 RMK A01 T01051035  RH  037%=      5-min Rain = 0
KRO1 192057Z 33020KT 11/M04 A3026 RMK A01 T01051038  RH  037%=      5-min Rain = 0
KRO1 192058Z 33021KT 10/M04 A3026 RMK A01 T01041037  RH  037%=      5-min Rain = 0
KRO1 192059Z 33019KT 11/M04 A3026 RMK A01 T01051036  RH  037%=      5-min Rain = 0
KRO1 192100Z 33019KT 11/M04 A3026 RMK A01 T01051038  RH  037%=      5-min Rain = 0
KRO1 192101Z 33019KT 10/M04 A3026 RMK A01 T01031038  RH  037%=      5-min Rain = 0
KRO1 192102Z 33015G20KT 10/M04 A3026 RMK A01 T01041037  RH  037%=      5-min Rain = 0
KRO1 192103Z 34013KT 10/M04 A3026 RMK A01 T01031036  RH  037%=      5-min Rain = 0
KRO1 192104Z 33012KT 11/M03 A3026 RMK A01 T01061032  RH  038%=      5-min Rain = 0
KRO1 192105Z 33016KT 11/M03 A3026 RMK A01 T01081033  RH  037%=      5-min Rain = 0
KRO1 192106Z 33017KT 11/M03 A3026 RMK A01 T01081033  RH  037%=      5-min Rain = 0
KRO1 192107Z 33017KT 11/M03 A3026 RMK A01 T01091034  RH  036%=      5-min Rain = 0
KRO1 192108Z 33015KT 11/M03 A3026 RMK A01 T01081034  RH  037%=      5-min Rain = 0
KRO1 192109Z 33015KT 11/M03 A3026 RMK A01 T01091033  RH  037%=      5-min Rain = 0
KRO1 192110Z 34017KT 11/M03 A3026 RMK A01 T01121030  RH  037%=      5-min Rain = 0
KRO1 192111Z 33020KT 11/M03 A3026 RMK A01 T01121034  RH  036%=      5-min Rain = 0
KRO1 192112Z 33019G24KT 11/M04 A3026 RMK A01 T01101036  RH  036%=      5-min Rain = 0
KRO1 192113Z 34018KT 11/M04 A3026 RMK A01 T01081037  RH  036%=      5-min Rain = 0
KRO1 192114Z 34017KT 11/M04 A3026 RMK A01 T01071037  RH  036%=      5-min Rain = 0
KRO1 192115Z 34017KT 11/M04 A3026 RMK A01 T01061037  RH  036%=      5-min Rain = 0
KRO1 192116Z 34015KT 11/M04 A3026 RMK A01 T01061037  RH  036%=      5-min Rain = 0
KRO1 192117Z 33014KT 11/M03 A3026 RMK A01 T01071034  RH  037%=      5-min Rain = 0
KRO1 192118Z 34016KT 11/M03 A3026 RMK A01 T01081034  RH  037%=      5-min Rain = 0
KRO1 192119Z 34017KT 11/M03 A3026 RMK A01 T01101034  RH  036%=      5-min Rain = 0
KRO1 192120Z 35018KT 11/M04 A3026 RMK A01 T01101036  RH  036%=      5-min Rain = 0
KRO1 192121Z 34020KT 11/M04 A3026 RMK A01 T01091035  RH  036%=      5-min Rain = 0
KRO1 192122Z 34019KT 11/M04 A3026 RMK A01 T01091037  RH  036%=      5-min Rain = 0
KRO1 192123Z 34019G24KT 11/M04 A3026 RMK A01 T01091036  RH  036%=      5-min Rain = 0
KRO1 192124Z 34018KT 11/M04 A3026 RMK A01 T01101036  RH  036%=      5-min Rain = 0
KRO1 192125Z 34018KT 11/M04 A3026 RMK A01 T01101037  RH  035%=      5-min Rain = 0
KRO1 192126Z 33018KT 11/M04 A3026 RMK A01 T01101036  RH  036%=      5-min Rain = 0
KRO1 192127Z 33018KT 11/M04 A3026 RMK A01 T01101036  RH  036%=      5-min Rain = 0
KRO1 192128Z 32016KT 11/M04 A3026 RMK A01 T01121035  RH  036%=      5-min Rain = 0
KRO1 192129Z 33020KT 11/M04 A3026 RMK A01 T01121036  RH  035%=      5-min Rain = 0
KRO1 192130Z 34017KT 11/M04 A3026 RMK A01 T01111037  RH  035%=      5-min Rain = 0
KRO1 192131Z 34016KT 11/M04 A3026 RMK A01 T01111037  RH  035%=      5-min Rain = 0
KRO1 192132Z 33017G22KT 11/M04 A3026 RMK A01 T01111038  RH  035%=      5-min Rain = 0
KRO1 192133Z 34017KT 11/M04 A3026 RMK A01 T01091038  RH  035%=      5-min Rain = 0
KRO1 192134Z 34017KT 11/M04 A3026 RMK A01 T01101036  RH  036%=      5-min Rain = 0
KRO1 192135Z 34016KT 11/M04 A3026 RMK A01 T01101035  RH  036%=      5-min Rain = 0
KRO1 192136Z 34017KT 11/M04 A3026 RMK A01 T01101036  RH  036%=      5-min Rain = 0
KRO1 192137Z 33014G19KT 11/M03 A3026 RMK A01 T01111034  RH  036%=      5-min Rain = 0
KRO1 192138Z 33014KT 11/M03 A3026 RMK A01 T01131032  RH  036%=      5-min Rain = 0
KRO1 192139Z 32016KT 11/M04 A3026 RMK A01 T01131035  RH  035%=      5-min Rain = 0
KRO1 192140Z 32017KT 11/M04 A3026 RMK A01 T01121035  RH  035%=      5-min Rain = 0
KRO1 192141Z 33016KT 11/M03 A3026 RMK A01 T01131033  RH  036%=      5-min Rain = 0
KRO1 192142Z 33021KT 11/M03 A3026 RMK A01 T01131034  RH  035%=      5-min Rain = 0
KRO1 192143Z 33018KT 11/M04 A3026 RMK A01 T01121036  RH  035%=      5-min Rain = 0
KRO1 192144Z 33016KT 11/M04 A3026 RMK A01 T01111036  RH  035%=      5-min Rain = 0
KRO1 192145Z 33017KT 11/M04 A3026 RMK A01 T01111035  RH  036%=      5-min Rain = 0
KRO1 192146Z 32015KT 11/M04 A3026 RMK A01 T01111036  RH  036%=      5-min Rain = 0
KRO1 192147Z 32014KT 11/M04 A3026 RMK A01 T01111035  RH  036%=      5-min Rain = 0
KRO1 192148Z 33015KT 11/M03 A3026 RMK A01 T01111034  RH  036%=      5-min Rain = 0
KRO1 192149Z 34015KT 11/M03 A3027 RMK A01 T01121034  RH  036%=      5-min Rain = 0
KRO1 192150Z 34013KT 11/M03 A3026 RMK A01 T01111034  RH  036%=      5-min Rain = 0
KRO1 192151Z 34013KT 11/M03 A3026 RMK A01 T01111034  RH  036%=      5-min Rain = 0
KRO1 192152Z 35015KT 11/M03 A3026 RMK A01 T01121031  RH  037%=      5-min Rain = 0
KRO1 192153Z 34020KT 11/M03 A3026 RMK A01 T01131032  RH  036%=      5-min Rain = 0
KRO1 192154Z 34019KT 11/M03 A3026 RMK A01 T01121034  RH  036%=      5-min Rain = 0
KRO1 192155Z 34018KT 11/M03 A3026 RMK A01 T01121033  RH  036%=      5-min Rain = 0
KRO1 192156Z 34018KT 11/M03 A3026 RMK A01 T01121032  RH  036%=      5-min Rain = 0
KRO1 192157Z 34017KT 11/M03 A3027 RMK A01 T01121033  RH  036%=      5-min Rain = 0
KRO1 192158Z 33015KT 11/M03 A3027 RMK A01 T01121033  RH  036%=      5-min Rain = 0
KRO1 192159Z 33013KT 11/M03 A3027 RMK A01 T01121032  RH  036%=      5-min Rain = 0
KRO1 192200Z 32014KT 11/M03 A3026 RMK A01 T01131032  RH  036%=      5-min Rain = 0
KRO1 192201Z 34015KT 11/M03 A3026 RMK A01 T01131032  RH  036%=      5-min Rain = 0
KRO1 192202Z 35016KT 11/M03 A3026 RMK A01 T01131033  RH  036%=      5-min Rain = 0
KRO1 192203Z 34015KT 11/M03 A3026 RMK A01 T01121033  RH  036%=      5-min Rain = 0
KRO1 192204Z 34014KT 11/M03 A3026 RMK A01 T01131032  RH  036%=      5-min Rain = 0
KRO1 192205Z 34017KT 11/M03 A3026 RMK A01 T01131034  RH  036%=      5-min Rain = 0
KRO1 192206Z 34016G22KT 11/M03 A3026 RMK A01 T01121034  RH  036%=      5-min Rain = 0
KRO1 192207Z 34019KT 11/M03 A3026 RMK A01 T01121034  RH  036%=      5-min Rain = 0
KRO1 192208Z 34017KT 11/M04 A3026 RMK A01 T01111036  RH  036%=      5-min Rain = 0
KRO1 192209Z 33016KT 11/M04 A3026 RMK A01 T01111035  RH  036%=      5-min Rain = 0
KRO1 192210Z 32015KT 11/M03 A3026 RMK A01 T01111033  RH  036%=      5-min Rain = 0
KRO1 192211Z 32015KT 11/M03 A3026 RMK A01 T01121033  RH  036%=      5-min Rain = 0
KRO1 192212Z 33015KT 11/M03 A3026 RMK A01 T01121032  RH  036%=      5-min Rain = 0
KRO1 192213Z 34015KT 11/M03 A3026 RMK A01 T01131033  RH  036%=      5-min Rain = 0
KRO1 192214Z 34018G23KT 11/M03 A3026 RMK A01 T01131032  RH  036%=      5-min Rain = 0
KRO1 192215Z 34018G23KT 11/M03 A3026 RMK A01 T01131032  RH  036%=      5-min Rain = 0
KRO1 192216Z 34018KT 11/M03 A3026 RMK A01 T01141033  RH  036%=      5-min Rain = 0
KRO1 192217Z 34016KT 11/M03 A3026 RMK A01 T01131033  RH  036%=      5-min Rain = 0
KRO1 192218Z 34017KT 11/M03 A3026 RMK A01 T01131034  RH  035%=      5-min Rain = 0
KRO1 192219Z 35014KT 11/M04 A3026 RMK A01 T01111035  RH  036%=      5-min Rain = 0
KRO1 192220Z 35013KT 11/M03 A3026 RMK A01 T01121032  RH  036%=      5-min Rain = 0
KRO1 192221Z 34014KT 11/M04 A3026 RMK A01 T01121035  RH  036%=      5-min Rain = 0
KRO1 192222Z 34016KT 11/M04 A3026 RMK A01 T01111035  RH  036%=      5-min Rain = 0
KRO1 192223Z 35016KT 11/M03 A3026 RMK A01 T01111034  RH  036%=      5-min Rain = 0
KRO1 192224Z 35015KT 11/M03 A3026 RMK A01 T01111033  RH  036%=      5-min Rain = 0
KRO1 192225Z 35014KT 11/M03 A3026 RMK A01 T01111032  RH  036%=      5-min Rain = 0
KRO1 192226Z 34014KT 11/M03 A3026 RMK A01 T01121032  RH  036%=      5-min Rain = 0
KRO1 192227Z 34014KT 11/M03 A3026 RMK A01 T01121033  RH  036%=      5-min Rain = 0
KRO1 192228Z 34012KT 11/M03 A3026 RMK A01 T01121032  RH  036%=      5-min Rain = 0
KRO1 192229Z 35012KT 11/M03 A3026 RMK A01 T01121032  RH  036%=      5-min Rain = 0
KRO1 192230Z 35014KT 11/M03 A3026 RMK A01 T01121031  RH  036%=      5-min Rain = 0
KRO1 192231Z 34013KT 11/M03 A3026 RMK A01 T01121032  RH  036%=      5-min Rain = 0
KRO1 192232Z 34014KT 11/M03 A3026 RMK A01 T01121031  RH  037%=      5-min Rain = 0
KRO1 192233Z 33014KT 11/M03 A3026 RMK A01 T01121034  RH  036%=      5-min Rain = 0
KRO1 192234Z 34015KT 11/M04 A3026 RMK A01 T01111036  RH  036%=      5-min Rain = 0
KRO1 192235Z 35016KT 11/M03 A3026 RMK A01 T01101034  RH  036%=      5-min Rain = 0
KRO1 192236Z 35013KT 11/M03 A3026 RMK A01 T01101034  RH  036%=      5-min Rain = 0
KRO1 192237Z 34012KT 11/M03 A3026 RMK A01 T01101033  RH  037%=      5-min Rain = 0
KRO1 192238Z 34012KT 11/M03 A3026 RMK A01 T01111032  RH  037%=      5-min Rain = 0
KRO1 192239Z 35014KT 11/M03 A3026 RMK A01 T01111033  RH  036%=      5-min Rain = 0
KRO1 192240Z 35015KT 11/M04 A3026 RMK A01 T01111035  RH  036%=      5-min Rain = 0
KRO1 192241Z 35015KT 11/M03 A3026 RMK A01 T01101033  RH  036%=      5-min Rain = 0
KRO1 192242Z 35016KT 11/M03 A3026 RMK A01 T01111032  RH  036%=      5-min Rain = 0
KRO1 192243Z 36018KT 11/M03 A3026 RMK A01 T01111033  RH  036%=      5-min Rain = 0
KRO1 192244Z 35015KT 11/M04 A3026 RMK A01 T01101035  RH  036%=      5-min Rain = 0
KRO1 192245Z 35015KT 11/M03 A3026 RMK A01 T01101034  RH  036%=      5-min Rain = 0
KRO1 192246Z 35014KT 11/M03 A3026 RMK A01 T01091034  RH  036%=      5-min Rain = 0
KRO1 192247Z 35015KT 11/M03 A3026 RMK A01 T01101033  RH  037%=      5-min Rain = 0
KRO1 192248Z 34013G18KT 11/M03 A3026 RMK A01 T01091033  RH  037%=      5-min Rain = 0
KRO1 192249Z 35016KT 11/M03 A3026 RMK A01 T01101033  RH  037%=      5-min Rain = 0
KRO1 192250Z 35016KT 11/M03 A3026 RMK A01 T01101033  RH  037%=      5-min Rain = 0
KRO1 192251Z 35015KT 11/M03 A3026 RMK A01 T01091034  RH  037%=      5-min Rain = 0
KRO1 192252Z 35017KT 11/M04 A3026 RMK A01 T01081035  RH  036%=      5-min Rain = 0
KRO1 192253Z 00017KT 11/M04 A3026 RMK A01 T01081035  RH  037%=      5-min Rain = 0
KRO1 192254Z 36015KT 11/M03 A3026 RMK A01 T01071034  RH  037%=      5-min Rain = 0
KRO1 192255Z 35014KT 11/M03 A3027 RMK A01 T01071034  RH  037%=      5-min Rain = 0
KRO1 192256Z 36014KT 11/M03 A3026 RMK A01 T01071034  RH  037%=      5-min Rain = 0
KRO1 192257Z 35015KT 11/M03 A3027 RMK A01 T01071034  RH  037%=      5-min Rain = 0
KRO1 192258Z 35014KT 11/M04 A3026 RMK A01 T01071035  RH  037%=      5-min Rain = 0
KRO1 192259Z 35016KT 11/M04 A3027 RMK A01 T01071035  RH  037%=      5-min Rain = 0
KRO1 192300Z 35014KT 11/M04 A3027 RMK A01 T01071036  RH  036%=      5-min Rain = 0
KRO1 192301Z 35014KT 11/M04 A3027 RMK A01 T01071035  RH  037%=      5-min Rain = 0
KRO1 192302Z 35013KT 11/M03 A3027 RMK A01 T01061034  RH  037%=      5-min Rain = 0
KRO1 192303Z 35012KT 11/M04 A3027 RMK A01 T01061035  RH  037%=      5-min Rain = 0
KRO1 192304Z 35013KT 11/M03 A3027 RMK A01 T01061033  RH  037%=      5-min Rain = 0
KRO1 192305Z 36014KT 11/M03 A3027 RMK A01 T01061033  RH  038%=      5-min Rain = 0
KRO1 192306Z 36015KT 11/M03 A3027 RMK A01 T01051034  RH  037%=      5-min Rain = 0
KRO1 192307Z 00015KT 10/M04 A3027 RMK A01 T01041036  RH  037%=      5-min Rain = 0
KRO1 192308Z 00015KT 10/M04 A3027 RMK A01 T01041035  RH  038%=      5-min Rain = 0
KRO1 192309Z 36013KT 10/M04 A3027 RMK A01 T01031036  RH  038%=      5-min Rain = 0
KRO1 192310Z 36011KT 10/M04 A3027 RMK A01 T01031035  RH  038%=      5-min Rain = 0
KRO1 192311Z 35012KT 10/M03 A3027 RMK A01 T01031034  RH  038%=      5-min Rain = 0
KRO1 192312Z 35013KT 10/M04 A3027 RMK A01 T01031035  RH  038%=      5-min Rain = 0
KRO1 192313Z 35013KT 10/M04 A3027 RMK A01 T01031035  RH  038%=      5-min Rain = 0
KRO1 192314Z 36011KT 10/M04 A3027 RMK A01 T01021035  RH  038%=      5-min Rain = 0
KRO1 192315Z 00009KT 10/M03 A3027 RMK A01 T01021033  RH  038%=      5-min Rain = 0
KRO1 192316Z 36011KT 10/M03 A3027 RMK A01 T01021032  RH  039%=      5-min Rain = 0
KRO1 192317Z 36012KT 10/M03 A3027 RMK A01 T01021033  RH  038%=      5-min Rain = 0
KRO1 192318Z 36011KT 10/M04 A3027 RMK A01 T01021035  RH  038%=      5-min Rain = 0
KRO1 192319Z 36012KT 10/M04 A3027 RMK A01 T01011035  RH  038%=      5-min Rain = 0
KRO1 192320Z 35012KT 10/M03 A3027 RMK A01 T01011034  RH  039%=      5-min Rain = 0
KRO1 192321Z 36013KT 10/M03 A3027 RMK A01 T01001034  RH  039%=      5-min Rain = 0
KRO1 192322Z 36011KT 10/M04 A3027 RMK A01 T01001035  RH  039%=      5-min Rain = 0
KRO1 192323Z 00011KT 10/M04 A3027 RMK A01 T01001035  RH  039%=      5-min Rain = 0
KRO1 192324Z 36010KT 10/M03 A3027 RMK A01 T00991033  RH  039%=      5-min Rain = 0
KRO1 192325Z 01009KT 10/M03 A3027 RMK A01 T01001033  RH  039%=      5-min Rain = 0
KRO1 192326Z 00010KT 10/M03 A3027 RMK A01 T00991032  RH  040%=      5-min Rain = 0
KRO1 192327Z 01011KT 10/M03 A3027 RMK A01 T00981032  RH  040%=      5-min Rain = 0
KRO1 192328Z 01011KT 10/M03 A3027 RMK A01 T00971033  RH  040%=      5-min Rain = 0
KRO1 192329Z 01011KT 10/M03 A3027 RMK A01 T00961033  RH  040%=      5-min Rain = 0
KRO1 192330Z 01012KT 10/M03 A3027 RMK A01 T00961034  RH  040%=      5-min Rain = 0
KRO1 192331Z 01011KT 10/M03 A3027 RMK A01 T00951033  RH  040%=      5-min Rain = 0
KRO1 192332Z 01010KT 09/M03 A3027 RMK A01 T00941033  RH  041%=      5-min Rain = 0
KRO1 192333Z 01011KT 09/M03 A3027 RMK A01 T00941032  RH  041%=      5-min Rain = 0
KRO1 192334Z 01011KT 09/M03 A3027 RMK A01 T00931033  RH  041%=      5-min Rain = 0
KRO1 192335Z 01010KT 09/M03 A3027 RMK A01 T00941033  RH  041%=      5-min Rain = 0
KRO1 192336Z 01010KT 09/M03 A3027 RMK A01 T00931032  RH  041%=      5-min Rain = 0
KRO1 192337Z 01010KT 09/M03 A3027 RMK A01 T00931033  RH  041%=      5-min Rain = 0
KRO1 192338Z 01010KT 09/M03 A3027 RMK A01 T00931033  RH  041%=      5-min Rain = 0
KRO1 192339Z 01009KT 09/M03 A3027 RMK A01 T00921032  RH  041%=      5-min Rain = 0
KRO1 192340Z 02009KT 09/M03 A3027 RMK A01 T00921031  RH  042%=      5-min Rain = 0
KRO1 192341Z 01008KT 09/M03 A3027 RMK A01 T00911030  RH  043%=      5-min Rain = 0
KRO1 192342Z 01009KT 09/M03 A3027 RMK A01 T00901028  RH  043%=      5-min Rain = 0
KRO1 192343Z 01010KT 09/M03 A3027 RMK A01 T00901029  RH  043%=      5-min Rain = 0
KRO1 192344Z 01010KT 09/M03 A3027 RMK A01 T00891030  RH  043%=      5-min Rain = 0
KRO1 192345Z 01011KT 09/M03 A3027 RMK A01 T00901030  RH  043%=      5-min Rain = 0
KRO1 192346Z 01010KT 09/M03 A3027 RMK A01 T00891031  RH  043%=      5-min Rain = 0
KRO1 192347Z 01009KT 09/M03 A3027 RMK A01 T00891031  RH  043%=      5-min Rain = 0
KRO1 192348Z 01010KT 09/M03 A3027 RMK A01 T00881031  RH  043%=      5-min Rain = 0
KRO1 192349Z 01009KT 09/M03 A3027 RMK A01 T00881032  RH  043%=      5-min Rain = 0
KRO1 192350Z 01009KT 09/M03 A3027 RMK A01 T00881032  RH  043%=      5-min Rain = 0
KRO1 192351Z 01008KT 09/M03 A3027 RMK A01 T00881032  RH  043%=      5-min Rain = 0
KRO1 192352Z 01008KT 09/M03 A3027 RMK A01 T00871032  RH  043%=      5-min Rain = 0
KRO1 192353Z 01008KT 09/M03 A3027 RMK A01 T00871030  RH  044%=      5-min Rain = 0
KRO1 192354Z 01008KT 09/M03 A3027 RMK A01 T00851030  RH  044%=      5-min Rain = 0
KRO1 192355Z 01008KT 09/M03 A3027 RMK A01 T00851030  RH  044%=      5-min Rain = 0
KRO1 192356Z 00008KT 09/M03 A3028 RMK A01 T00851030  RH  044%=      5-min Rain = 0
KRO1 192357Z 00007KT 08/M03 A3028 RMK A01 T00841030  RH  045%=      5-min Rain = 0
KRO1 192358Z 00007KT 08/M03 A3028 RMK A01 T00831029  RH  045%=      5-min Rain = 0
KRO1 192359Z 00007KT 08/M03 A3028 RMK A01 T00821029  RH  046%=      5-min Rain = 0
KRO1 200000Z 00009KT 08/M03 A3027 RMK A01 T00811029  RH  046%=      5-min Rain = 0
KRO1 200001Z 01009KT 08/M03 A3027 RMK A01 T00821032  RH  045%=      5-min Rain = 0
KRO1 200002Z 01008KT 08/M03 A3028 RMK A01 T00831032  RH  044%=      5-min Rain = 0
KRO1 200003Z 00009KT 08/M03 A3028 RMK A01 T00821032  RH  044%=      5-min Rain = 0
KRO1 200004Z 01008KT 08/M03 A3028 RMK A01 T00821032  RH  045%=      5-min Rain = 0
KRO1 200005Z 01008KT 08/M03 A3028 RMK A01 T00811031  RH  045%=      5-min Rain = 0
KRO1 200006Z 01008KT 08/M03 A3028 RMK A01 T00801031  RH  046%=      5-min Rain = 0
KRO1 200007Z 01008KT 08/M03 A3028 RMK A01 T00791031  RH  046%=      5-min Rain = 0
KRO1 200008Z 01008KT 08/M03 A3028 RMK A01 T00791032  RH  045%=      5-min Rain = 0
KRO1 200009Z 01008KT 08/M03 A3028 RMK A01 T00791032  RH  045%=      5-min Rain = 0
KRO1 200010Z 01008KT 08/M03 A3028 RMK A01 T00781031  RH  046%=      5-min Rain = 0
KRO1 200011Z 01007KT 08/M03 A3028 RMK A01 T00781031  RH  046%=      5-min Rain = 0
KRO1 200012Z 01007KT 08/M03 A3028 RMK A01 T00781032  RH  046%=      5-min Rain = 0
KRO1 200013Z 01007KT 08/M03 A3028 RMK A01 T00781032  RH  046%=      5-min Rain = 0
KRO1 200014Z 01006KT 08/M03 A3028 RMK A01 T00771033  RH  046%=      5-min Rain = 0
KRO1 200015Z 01007KT 08/M03 A3028 RMK A01 T00771031  RH  046%=      5-min Rain = 0
KRO1 200016Z 01007KT 08/M03 A3028 RMK A01 T00751031  RH  047%=      5-min Rain = 0
KRO1 200017Z 01007KT 08/M03 A3028 RMK A01 T00751031  RH  047%=      5-min Rain = 0
KRO1 200018Z 01007KT 07/M03 A3028 RMK A01 T00731030  RH  048%=      5-min Rain = 0
KRO1 200019Z 02007KT 07/M03 A3028 RMK A01 T00721030  RH  048%=      5-min Rain = 0
KRO1 200020Z 02007KT 07/M03 A3028 RMK A01 T00721030  RH  048%=      5-min Rain = 0
KRO1 200021Z 02008KT 07/M03 A3028 RMK A01 T00711030  RH  049%=      5-min Rain = 0
KRO1 200022Z 02008KT 07/M03 A3028 RMK A01 T00701029  RH  049%=      5-min Rain = 0
KRO1 200023Z 02008KT 07/M03 A3028 RMK A01 T00701030  RH  049%=      5-min Rain = 0
KRO1 200024Z 02008KT 07/M03 A3028 RMK A01 T00691031  RH  049%=      5-min Rain = 0
KRO1 200025Z 01009KT 07/M03 A3028 RMK A01 T00691031  RH  049%=      5-min Rain = 0
KRO1 200026Z 01008KT 07/M03 A3028 RMK A01 T00691031  RH  049%=      5-min Rain = 0
KRO1 200027Z 01008KT 07/M03 A3028 RMK A01 T00691031  RH  049%=      5-min Rain = 0
KRO1 200028Z 01008KT 07/M03 A3028 RMK A01 T00691030  RH  049%=      5-min Rain = 0
KRO1 200029Z 01008KT 07/M03 A3028 RMK A01 T00691030  RH  049%=      5-min Rain = 0
KRO1 200030Z 01008KT 07/M03 A3028 RMK A01 T00691030  RH  049%=      5-min Rain = 0
KRO1 200031Z 01007KT 07/M03 A3028 RMK A01 T00681031  RH  049%=      5-min Rain = 0
KRO1 200032Z 01007KT 07/M03 A3028 RMK A01 T00681031  RH  049%=      5-min Rain = 0
KRO1 200033Z 01007KT 07/M03 A3028 RMK A01 T00691031  RH  049%=      5-min Rain = 0
KRO1 200034Z 01008KT 07/M03 A3028 RMK A01 T00691031  RH  049%=      5-min Rain = 0
KRO1 200035Z 01007KT 07/M03 A3028 RMK A01 T00681030  RH  050%=      5-min Rain = 0
KRO1 200036Z 01007KT 07/M03 A3028 RMK A01 T00671030  RH  050%=      5-min Rain = 0
KRO1 200037Z 01007KT 07/M03 A3028 RMK A01 T00661030  RH  050%=      5-min Rain = 0
KRO1 200038Z 01007KT 07/M03 A3028 RMK A01 T00661029  RH  051%=      5-min Rain = 0
KRO1 200039Z 01006KT 07/M03 A3028 RMK A01 T00651028  RH  051%=      5-min Rain = 0
KRO1 200040Z 01006KT 06/M03 A3029 RMK A01 T00641027  RH  052%=      5-min Rain = 0
KRO1 200041Z 01006KT 06/M03 A3029 RMK A01 T00631027  RH  053%=      5-min Rain = 0
KRO1 200042Z 01006KT 06/M03 A3029 RMK A01 T00621027  RH  053%=      5-min Rain = 0
KRO1 200043Z 01006KT 06/M03 A3029 RMK A01 T00621026  RH  053%=      5-min Rain = 0
KRO1 200044Z 01006KT 06/M03 A3029 RMK A01 T00621027  RH  053%=      5-min Rain = 0
KRO1 200045Z 02006KT 06/M03 A3029 RMK A01 T00621028  RH  053%=      5-min Rain = 0
KRO1 200046Z 01005KT 06/M03 A3029 RMK A01 T00611028  RH  053%=      5-min Rain = 0
KRO1 200047Z 02005KT 06/M03 A3029 RMK A01 T00611027  RH  053%=      5-min Rain = 0
KRO1 200048Z 01006KT 06/M03 A3029 RMK A01 T00611028  RH  053%=      5-min Rain = 0
KRO1 200049Z 02006KT 06/M03 A3029 RMK A01 T00621031  RH  051%=      5-min Rain = 0
KRO1 200050Z 02006KT 06/M03 A3029 RMK A01 T00631031  RH  051%=      5-min Rain = 0
KRO1 200051Z 01006KT 06/M03 A3029 RMK A01 T00641031  RH  051%=      5-min Rain = 0
KRO1 200052Z 02006KT 06/M03 A3029 RMK A01 T00641031  RH  051%=      5-min Rain = 0
KRO1 200053Z 02006KT 06/M03 A3029 RMK A01 T00641030  RH  051%=      5-min Rain = 0
KRO1 200054Z 02006KT 06/M03 A3029 RMK A01 T00631030  RH  051%=      5-min Rain = 0
KRO1 200055Z 02007KT 06/M03 A3029 RMK A01 T00621031  RH  051%=      5-min Rain = 0
KRO1 200056Z 02007KT 06/M03 A3029 RMK A01 T00621031  RH  051%=      5-min Rain = 0
KRO1 200057Z 02006KT 06/M03 A3029 RMK A01 T00611032  RH  051%=      5-min Rain = 0
KRO1 200058Z 02007KT 06/M03 A3029 RMK A01 T00601032  RH  052%=      5-min Rain = 0
KRO1 200059Z 02007KT 06/M03 A3029 RMK A01 T00601032  RH  052%=      5-min Rain = 0
KRO1 200100Z 02007KT 06/M03 A3029 RMK A01 T00591032  RH  052%=      5-min Rain = 0
KRO1 200101Z 02006KT 06/M03 A3029 RMK A01 T00581032  RH  052%=      5-min Rain = 0
KRO1 200102Z 02007KT 06/M03 A3029 RMK A01 T00571032  RH  053%=      5-min Rain = 0
KRO1 200103Z 01007KT 06/M03 A3029 RMK A01 T00561031  RH  053%=      5-min Rain = 0
KRO1 200104Z 01007KT 06/M03 A3029 RMK A01 T00561032  RH  053%=      5-min Rain = 0
KRO1 200105Z 01007KT 06/M03 A3029 RMK A01 T00561032  RH  053%=      5-min Rain = 0
KRO1 200106Z 01007KT 06/M03 A3029 RMK A01 T00561032  RH  053%=      5-min Rain = 0
KRO1 200107Z 01007KT 06/M03 A3029 RMK A01 T00561031  RH  053%=      5-min Rain = 0
KRO1 200108Z 01006KT 06/M03 A3029 RMK A01 T00561030  RH  054%=      5-min Rain = 0
KRO1 200109Z 01006KT 05/M03 A3029 RMK A01 T00541030  RH  055%=      5-min Rain = 0
KRO1 200110Z 00007KT 05/M03 A3029 RMK A01 T00541030  RH  054%=      5-min Rain = 0
KRO1 200111Z 01007KT 05/M03 A3029 RMK A01 T00541032  RH  054%=      5-min Rain = 0
KRO1 200112Z 01007KT 05/M03 A3029 RMK A01 T00531033  RH  054%=      5-min Rain = 0
KRO1 200113Z 01007KT 05/M03 A3029 RMK A01 T00531033  RH  054%=      5-min Rain = 0
KRO1 200114Z 01008KT 05/M03 A3029 RMK A01 T00531033  RH  054%=      5-min Rain = 0
KRO1 200115Z 01007KT 05/M03 A3029 RMK A01 T00521032  RH  055%=      5-min Rain = 0
KRO1 200116Z 01008KT 05/M03 A3029 RMK A01 T00511031  RH  055%=      5-min Rain = 0
KRO1 200117Z 01008KT 05/M03 A3029 RMK A01 T00511030  RH  056%=      5-min Rain = 0
KRO1 200118Z 01008KT 05/M03 A3029 RMK A01 T00521030  RH  055%=      5-min Rain = 0
KRO1 200119Z 01008KT 05/M03 A3029 RMK A01 T00521030  RH  055%=      5-min Rain = 0
KRO1 200120Z 01009KT 05/M03 A3029 RMK A01 T00521030  RH  055%=      5-min Rain = 0
KRO1 200121Z 01009KT 05/M03 A3029 RMK A01 T00521030  RH  055%=      5-min Rain = 0
KRO1 200122Z 01009KT 05/M03 A3029 RMK A01 T00521030  RH  055%=      5-min Rain = 0
KRO1 200123Z 01008KT 05/M03 A3029 RMK A01 T00521030  RH  055%=      5-min Rain = 0
KRO1 200124Z 01008KT 05/M03 A3029 RMK A01 T00521031  RH  055%=      5-min Rain = 0
KRO1 200125Z 01008KT 05/M03 A3029 RMK A01 T00521030  RH  055%=      5-min Rain = 0
KRO1 200126Z 01008KT 05/M03 A3029 RMK A01 T00511030  RH  056%=      5-min Rain = 0
KRO1 200127Z 02007KT 05/M03 A3029 RMK A01 T00511030  RH  056%=      5-min Rain = 0
KRO1 200128Z 02007KT 05/M03 A303 RMK A01 T00501030  RH  056%=      5-min Rain = 0
KRO1 200129Z 02007KT 05/M03 A303 RMK A01 T00491030  RH  057%=      5-min Rain = 0
KRO1 200130Z 02007KT 05/M03 A303 RMK A01 T00491029  RH  057%=      5-min Rain = 0
KRO1 200131Z 02007KT 05/M03 A303 RMK A01 T00491029  RH  057%=      5-min Rain = 0
KRO1 200132Z 02006KT 05/M03 A303 RMK A01 T00491029  RH  057%=      5-min Rain = 0
KRO1 200133Z 02007KT 05/M03 A303 RMK A01 T00481029  RH  057%=      5-min Rain = 0
KRO1 200134Z 02007KT 05/M03 A303 RMK A01 T00481029  RH  058%=      5-min Rain = 0
KRO1 200135Z 02006KT 05/M03 A303 RMK A01 T00471029  RH  058%=      5-min Rain = 0
KRO1 200136Z 02007KT 05/M03 A303 RMK A01 T00471029  RH  058%=      5-min Rain = 0
KRO1 200137Z 02007KT 05/M03 A303 RMK A01 T00471030  RH  058%=      5-min Rain = 0
KRO1 200138Z 02007KT 05/M03 A303 RMK A01 T00461030  RH  058%=      5-min Rain = 0
KRO1 200139Z 02007KT 05/M03 A303 RMK A01 T00451030  RH  058%=      5-min Rain = 0
KRO1 200140Z 02008KT 04/M03 A303 RMK A01 T00441030  RH  058%=      5-min Rain = 0
KRO1 200141Z 02008KT 04/M03 A303 RMK A01 T00431030  RH  059%=      5-min Rain = 0
KRO1 200142Z 02008KT 04/M03 A303 RMK A01 T00431030  RH  059%=      5-min Rain = 0
KRO1 200143Z 01007KT 04/M03 A303 RMK A01 T00421030  RH  059%=      5-min Rain = 0
KRO1 200144Z 01008KT 04/M03 A303 RMK A01 T00421030  RH  060%=      5-min Rain = 0
KRO1 200145Z 01008KT 04/M03 A303 RMK A01 T00411031  RH  060%=      5-min Rain = 0
KRO1 200146Z 01007KT 04/M03 A303 RMK A01 T00411031  RH  059%=      5-min Rain = 0
KRO1 200147Z 01008KT 04/M03 A303 RMK A01 T00411029  RH  060%=      5-min Rain = 0
KRO1 200148Z 01008KT 04/M03 A303 RMK A01 T00411030  RH  060%=      5-min Rain = 0
KRO1 200149Z 01007KT 04/M03 A303 RMK A01 T00401030  RH  060%=      5-min Rain = 0
KRO1 200150Z 01008KT 04/M03 A303 RMK A01 T00401031  RH  060%=      5-min Rain = 0
KRO1 200151Z 01008KT 04/M03 A3031 RMK A01 T00401031  RH  060%=      5-min Rain = 0
KRO1 200152Z 01008KT 04/M03 A3031 RMK A01 T00401030  RH  060%=      5-min Rain = 0
KRO1 200153Z 01008KT 04/M03 A303 RMK A01 T00411030  RH  060%=      5-min Rain = 0
KRO1 200154Z 01008KT 04/M03 A303 RMK A01 T00401030  RH  060%=      5-min Rain = 0
KRO1 200155Z 01008KT 04/M03 A3031 RMK A01 T00401030  RH  060%=      5-min Rain = 0
KRO1 200156Z 01008KT 04/M03 A3031 RMK A01 T00401030  RH  060%=      5-min Rain = 0
KRO1 200157Z 01008KT 04/M03 A3031 RMK A01 T00411030  RH  060%=      5-min Rain = 0
KRO1 200158Z 01008KT 04/M03 A3031 RMK A01 T00411030  RH  060%=      5-min Rain = 0
KRO1 200159Z 01007KT 04/M03 A3031 RMK A01 T00411030  RH  060%=      5-min Rain = 0
KRO1 200200Z 01007KT 04/M03 A3031 RMK A01 T00411030  RH  060%=      5-min Rain = 0
KRO1 200201Z 01007KT 04/M03 A3031 RMK A01 T00411030  RH  060%=      5-min Rain = 0
KRO1 200202Z 01007KT 04/M03 A3031 RMK A01 T00401030  RH  060%=      5-min Rain = 0
KRO1 200203Z 01007KT 04/M03 A3031 RMK A01 T00391030  RH  061%=      5-min Rain = 0
KRO1 200204Z 01007KT 04/M03 A3031 RMK A01 T00381031  RH  061%=      5-min Rain = 0
KRO1 200205Z 01007KT 04/M03 A3031 RMK A01 T00381031  RH  061%=      5-min Rain = 0
KRO1 200206Z 01007KT 04/M03 A3031 RMK A01 T00371031  RH  061%=      5-min Rain = 0
KRO1 200207Z 01007KT 04/M03 A3031 RMK A01 T00361031  RH  061%=      5-min Rain = 0
KRO1 200208Z 01007KT 04/M03 A3031 RMK A01 T00351031  RH  062%=      5-min Rain = 0
KRO1 200209Z 02007KT 04/M03 A3031 RMK A01 T00351030  RH  062%=      5-min Rain = 0
KRO1 200210Z 02007KT 03/M03 A3031 RMK A01 T00341030  RH  063%=      5-min Rain = 0
KRO1 200211Z 02007KT 03/M03 A3031 RMK A01 T00331029  RH  064%=      5-min Rain = 0
KRO1 200212Z 02007KT 03/M03 A3031 RMK A01 T00321029  RH  064%=      5-min Rain = 0
KRO1 200213Z 02007KT 03/M03 A3031 RMK A01 T00321028  RH  065%=      5-min Rain = 0
KRO1 200214Z 02007KT 03/M03 A3031 RMK A01 T00321029  RH  064%=      5-min Rain = 0
KRO1 200215Z 02007KT 03/M03 A3031 RMK A01 T00321029  RH  064%=      5-min Rain = 0
KRO1 200216Z 02006KT 03/M03 A3031 RMK A01 T00331029  RH  064%=      5-min Rain = 0
KRO1 200217Z 02006KT 03/M03 A3031 RMK A01 T00321030  RH  064%=      5-min Rain = 0
KRO1 200218Z 02006KT 03/M03 A3031 RMK A01 T00321030  RH  064%=      5-min Rain = 0
KRO1 200219Z 02006KT 03/M03 A3031 RMK A01 T00321030  RH  064%=      5-min Rain = 0
KRO1 200220Z 02006KT 03/M03 A3031 RMK A01 T00331030  RH  064%=      5-min Rain = 0
KRO1 200221Z 02006KT 03/M03 A3031 RMK A01 T00331030  RH  063%=      5-min Rain = 0
KRO1 200222Z 02006KT 03/M03 A3031 RMK A01 T00331030  RH  063%=      5-min Rain = 0
KRO1 200223Z 02006KT 03/M03 A303 RMK A01 T00341030  RH  063%=      5-min Rain = 0
KRO1 200224Z 02006KT 04/M03 A303 RMK A01 T00351029  RH  063%=      5-min Rain = 0
KRO1 200225Z 03006KT 04/M03 A303 RMK A01 T00361030  RH  062%=      5-min Rain = 0
KRO1 200226Z 03006KT 04/M03 A303 RMK A01 T00381030  RH  061%=      5-min Rain = 0
KRO1 200227Z 03006KT 04/M03 A303 RMK A01 T00391030  RH  060%=      5-min Rain = 0
KRO1 200228Z 03006KT 04/M03 A303 RMK A01 T00401031  RH  060%=      5-min Rain = 0
KRO1 200229Z 03006KT 04/M03 A303 RMK A01 T00401031  RH  060%=      5-min Rain = 0
KRO1 200230Z 03006KT 04/M03 A303 RMK A01 T00411031  RH  059%=      5-min Rain = 0
KRO1 200231Z 03006KT 04/M03 A303 RMK A01 T00411032  RH  059%=      5-min Rain = 0
KRO1 200232Z 03006KT 04/M03 A303 RMK A01 T00411032  RH  059%=      5-min Rain = 0
KRO1 200233Z 03006KT 04/M03 A303 RMK A01 T00411032  RH  059%=      5-min Rain = 0
KRO1 200234Z 03006KT 04/M03 A303 RMK A01 T00411032  RH  059%=      5-min Rain = 0
KRO1 200235Z 03006KT 04/M03 A303 RMK A01 T00411032  RH  059%=      5-min Rain = 0
KRO1 200236Z 03006KT 04/M03 A303 RMK A01 T00401032  RH  059%=      5-min Rain = 0
KRO1 200237Z 03006KT 04/M03 A303 RMK A01 T00391033  RH  060%=      5-min Rain = 0
KRO1 200238Z 03005KT 04/M03 A303 RMK A01 T00381033  RH  060%=      5-min Rain = 0
KRO1 200239Z 03005KT 04/M03 A303 RMK A01 T00381033  RH  060%=      5-min Rain = 0
KRO1 200240Z 03005KT 04/M03 A303 RMK A01 T00381032  RH  060%=      5-min Rain = 0
KRO1 200241Z 03005KT 04/M03 A303 RMK A01 T00371033  RH  060%=      5-min Rain = 0
KRO1 200242Z 03004KT 04/M03 A303 RMK A01 T00371033  RH  060%=      5-min Rain = 0
KRO1 200243Z 03004KT 04/M03 A303 RMK A01 T00361033  RH  061%=      5-min Rain = 0
KRO1 200244Z 03004KT 03/M03 A303 RMK A01 T00341032  RH  062%=      5-min Rain = 0
KRO1 200245Z 03002KT 03/M03 A303 RMK A01 T00321032  RH  063%=      5-min Rain = 0
KRO1 200246Z 05001KT 03/M03 A303 RMK A01 T00311033  RH  063%=      5-min Rain = 0
KRO1 200247Z 06000KT 03/M03 A303 RMK A01 T00301032  RH  064%=      5-min Rain = 0
KRO1 200248Z 06002KT 03/M03 A303 RMK A01 T00291032  RH  064%=      5-min Rain = 0
KRO1 200249Z 06002KT 03/M03 A303 RMK A01 T00291033  RH  063%=      5-min Rain = 0
KRO1 200250Z 08001KT 03/M03 A303 RMK A01 T00311034  RH  062%=      5-min Rain = 0
KRO1 200251Z 07003KT 03/M03 A303 RMK A01 T00321034  RH  062%=      5-min Rain = 0
KRO1 200252Z 08003KT 03/M03 A303 RMK A01 T00321034  RH  062%=      5-min Rain = 0
KRO1 200253Z 08003KT 03/M04 A303 RMK A01 T00321035  RH  061%=      5-min Rain = 0
KRO1 200254Z 08002KT 03/M04 A303 RMK A01 T00321035  RH  061%=      5-min Rain = 0
KRO1 200255Z 08002KT 03/M04 A303 RMK A01 T00321036  RH  061%=      5-min Rain = 0
KRO1 200256Z 07002KT 03/M04 A303 RMK A01 T00321037  RH  061%=      5-min Rain = 0
KRO1 200257Z 07002KT 03/M04 A303 RMK A01 T00321036  RH  061%=      5-min Rain = 0
KRO1 200258Z 06002KT 03/M04 A303 RMK A01 T00331035  RH  061%=      5-min Rain = 0
KRO1 200259Z 05002KT 03/M03 A303 RMK A01 T00341034  RH  061%=      5-min Rain = 0
KRO1 200300Z 04002KT 04/M03 A303 RMK A01 T00351034  RH  061%=      5-min Rain = 0
KRO1 200301Z 03001KT 04/M03 A303 RMK A01 T00351034  RH  061%=      5-min Rain = 0
KRO1 200302Z 03001KT 04/M04 A303 RMK A01 T00351035  RH  060%=      5-min Rain = 0
KRO1 200303Z 02002KT 03/M04 A303 RMK A01 T00341036  RH  060%=      5-min Rain = 0
KRO1 200304Z 01002KT 03/M04 A3031 RMK A01 T00321036  RH  061%=      5-min Rain = 0
KRO1 200305Z 00002KT 03/M04 A3031 RMK A01 T00311035  RH  062%=      5-min Rain = 0
KRO1 200306Z 01001KT 03/M03 A3031 RMK A01 T00311034  RH  062%=      5-min Rain = 0
KRO1 200307Z 35002KT 03/M03 A3031 RMK A01 T00311034  RH  062%=      5-min Rain = 0
KRO1 200308Z 00001KT 03/M03 A3031 RMK A01 T00321033  RH  062%=      5-min Rain = 0
KRO1 200309Z 02002KT 03/M03 A3031 RMK A01 T00321033  RH  062%=      5-min Rain = 0
KRO1 200310Z 02003KT 03/M03 A3031 RMK A01 T00321034  RH  062%=      5-min Rain = 0
KRO1 200311Z 03004KT 03/M03 A3031 RMK A01 T00321034  RH  062%=      5-min Rain = 0
KRO1 200312Z 04005KT 03/M03 A3031 RMK A01 T00311034  RH  062%=      5-min Rain = 0
KRO1 200313Z 04005KT 03/M04 A3031 RMK A01 T00301035  RH  063%=      5-min Rain = 0
KRO1 200314Z 04005KT 03/M04 A3031 RMK A01 T00291035  RH  063%=      5-min Rain = 0
KRO1 200315Z 04005KT 03/M04 A3031 RMK A01 T00281035  RH  063%=      5-min Rain = 0
KRO1 200316Z 04005KT 03/M04 A3031 RMK A01 T00281035  RH  064%=      5-min Rain = 0
KRO1 200317Z 05004KT 03/M04 A3031 RMK A01 T00261035  RH  064%=      5-min Rain = 0
KRO1 200318Z 05004KT 03/M03 A3031 RMK A01 T00261033  RH  065%=      5-min Rain = 0
KRO1 200319Z 05004KT 03/M03 A3031 RMK A01 T00251032  RH  066%=      5-min Rain = 0
KRO1 200320Z 05004KT 02/M03 A3032 RMK A01 T00241032  RH  066%=      5-min Rain = 0
KRO1 200321Z 05004KT 03/M03 A3032 RMK A01 T00261033  RH  065%=      5-min Rain = 0
KRO1 200322Z 04005KT 03/M03 A3032 RMK A01 T00271032  RH  065%=      5-min Rain = 0
KRO1 200323Z 04005KT 03/M03 A3032 RMK A01 T00271033  RH  065%=      5-min Rain = 0
KRO1 200324Z 04005KT 03/M03 A3032 RMK A01 T00291033  RH  064%=      5-min Rain = 0
KRO1 200325Z 05005KT 03/M03 A3032 RMK A01 T00301034  RH  063%=      5-min Rain = 0
KRO1 200326Z 05006KT 03/M03 A3032 RMK A01 T00311033  RH  063%=      5-min Rain = 0
KRO1 200327Z 05005KT 03/M03 A3032 RMK A01 T00301033  RH  063%=      5-min Rain = 0
KRO1 200328Z 06005KT 03/M03 A3032 RMK A01 T00301033  RH  063%=      5-min Rain = 0
KRO1 200329Z 06005KT 03/M03 A3032 RMK A01 T00301033  RH  063%=      5-min Rain = 0
KRO1 200330Z 06005KT 03/M03 A3032 RMK A01 T00301033  RH  063%=      5-min Rain = 0
KRO1 200331Z 06005KT 03/M03 A3032 RMK A01 T00301032  RH  064%=      5-min Rain = 0
KRO1 200332Z 05006KT 03/M03 A3032 RMK A01 T00281031  RH  065%=      5-min Rain = 0
KRO1 200333Z 05007KT 03/M03 A3032 RMK A01 T00281031  RH  065%=      5-min Rain = 0
KRO1 200334Z 05007KT 03/M03 A3032 RMK A01 T00271031  RH  066%=      5-min Rain = 0
KRO1 200335Z 06008KT 03/M03 A3032 RMK A01 T00261031  RH  066%=      5-min Rain = 0
KRO1 200336Z 06008KT 03/M03 A3032 RMK A01 T00251030  RH  067%=      5-min Rain = 0
KRO1 200337Z 06008KT 03/M03 A3032 RMK A01 T00251031  RH  067%=      5-min Rain = 0
KRO1 200338Z 06008KT 03/M03 A3032 RMK A01 T00251031  RH  067%=      5-min Rain = 0
KRO1 200339Z 06007KT 02/M03 A3032 RMK A01 T00241031  RH  067%=      5-min Rain = 0
KRO1 200340Z 06007KT 02/M03 A3032 RMK A01 T00231030  RH  068%=      5-min Rain = 0
KRO1 200341Z 06007KT 02/M03 A3032 RMK A01 T00221030  RH  069%=      5-min Rain = 0
KRO1 200342Z 06008KT 02/M03 A3033 RMK A01 T00211030  RH  069%=      5-min Rain = 0
KRO1 200343Z 06008KT 02/M03 A3033 RMK A01 T00201030  RH  070%=      5-min Rain = 0
KRO1 200344Z 06008KT 02/M03 A3033 RMK A01 T00191030  RH  070%=      5-min Rain = 0
KRO1 200345Z 06008KT 02/M03 A3032 RMK A01 T00191031  RH  069%=      5-min Rain = 0
KRO1 200346Z 06008KT 02/M03 A3032 RMK A01 T00191033  RH  069%=      5-min Rain = 0
KRO1 200347Z 06008KT 02/M03 A3032 RMK A01 T00191034  RH  068%=      5-min Rain = 0
KRO1 200348Z 06008KT 02/M03 A3032 RMK A01 T00191034  RH  068%=      5-min Rain = 0
KRO1 200349Z 06008KT 02/M03 A3032 RMK A01 T00191033  RH  068%=      5-min Rain = 0
KRO1 200350Z 06008KT 02/M03 A3032 RMK A01 T00181033  RH  069%=      5-min Rain = 0
KRO1 200351Z 06008KT 02/M03 A3033 RMK A01 T00171033  RH  069%=      5-min Rain = 0
KRO1 200352Z 06007KT 02/M03 A3033 RMK A01 T00161034  RH  070%=      5-min Rain = 0
KRO1 200353Z 07007KT 02/M03 A3033 RMK A01 T00161033  RH  070%=      5-min Rain = 0
KRO1 200354Z 07006KT 02/M03 A3033 RMK A01 T00151034  RH  070%=      5-min Rain = 0
KRO1 200355Z 07006KT 01/M03 A3033 RMK A01 T00141034  RH  070%=      5-min Rain = 0
KRO1 200356Z 07007KT 01/M04 A3033 RMK A01 T00141035  RH  070%=      5-min Rain = 0
KRO1 200357Z 08006KT 01/M04 A3033 RMK A01 T00141036  RH  069%=      5-min Rain = 0
KRO1 200358Z 08006KT 01/M04 A3033 RMK A01 T00141036  RH  069%=      5-min Rain = 0
KRO1 200359Z 08007KT 01/M04 A3033 RMK A01 T00141035  RH  070%=      5-min Rain = 0
KRO1 200400Z 08007KT 01/M04 A3033 RMK A01 T00131036  RH  070%=      5-min Rain = 0
KRO1 200401Z 08006KT 02/M04 A3033 RMK A01 T00151037  RH  069%=      5-min Rain = 0
KRO1 200402Z 08006KT 02/M04 A3033 RMK A01 T00151038  RH  068%=      5-min Rain = 0
KRO1 200403Z 07006KT 02/M04 A3033 RMK A01 T00161039  RH  067%=      5-min Rain = 0
KRO1 200404Z 07006KT 02/M04 A3033 RMK A01 T00161040  RH  066%=      5-min Rain = 0
KRO1 200405Z 07006KT 02/M04 A3033 RMK A01 T00161040  RH  066%=      5-min Rain = 0
KRO1 200406Z 07006KT 02/M04 A3033 RMK A01 T00161039  RH  067%=      5-min Rain = 0
KRO1 200407Z 07006KT 02/M04 A3033 RMK A01 T00161039  RH  067%=      5-min Rain = 0
KRO1 200408Z 07006KT 02/M04 A3033 RMK A01 T00151040  RH  067%=      5-min Rain = 0
KRO1 200409Z 08005KT 02/M04 A3033 RMK A01 T00151041  RH  067%=      5-min Rain = 0
KRO1 200410Z 08005KT 02/M04 A3033 RMK A01 T00151041  RH  067%=      5-min Rain = 0
KRO1 200411Z 08005KT 01/M04 A3033 RMK A01 T00141040  RH  067%=      5-min Rain = 0
KRO1 200412Z 08005KT 01/M04 A3033 RMK A01 T00141040  RH  067%=      5-min Rain = 0
KRO1 200413Z 08005KT 01/M04 A3033 RMK A01 T00141041  RH  067%=      5-min Rain = 0
KRO1 200414Z 08005KT 01/M04 A3033 RMK A01 T00131041  RH  067%=      5-min Rain = 0
KRO1 200415Z 08005KT 01/M04 A3033 RMK A01 T00131040  RH  068%=      5-min Rain = 0
KRO1 200416Z 08005KT 01/M04 A3033 RMK A01 T00131039  RH  068%=      5-min Rain = 0
KRO1 200417Z 08005KT 01/M04 A3033 RMK A01 T00121039  RH  069%=      5-min Rain = 0
KRO1 200418Z 08005KT 01/M04 A3033 RMK A01 T00121040  RH  069%=      5-min Rain = 0
KRO1 200419Z 08005KT 01/M04 A3033 RMK A01 T00111039  RH  069%=      5-min Rain = 0
KRO1 200420Z 08005KT 01/M04 A3033 RMK A01 T00111040  RH  069%=      5-min Rain = 0
KRO1 200421Z 08005KT 01/M04 A3033 RMK A01 T00111040  RH  069%=      5-min Rain = 0
KRO1 200422Z 08005KT 01/M04 A3033 RMK A01 T00111040  RH  069%=      5-min Rain = 0
KRO1 200423Z 08005KT 01/M04 A3033 RMK A01 T00101039  RH  070%=      5-min Rain = 0
KRO1 200424Z 08004KT 01/M04 A3033 RMK A01 T00101038  RH  071%=      5-min Rain = 0
KRO1 200425Z 07005KT 01/M04 A3033 RMK A01 T00091038  RH  071%=      5-min Rain = 0
KRO1 200426Z 07005KT 01/M04 A3033 RMK A01 T00091039  RH  071%=      5-min Rain = 0
KRO1 200427Z 07005KT 01/M04 A3033 RMK A01 T00091041  RH  070%=      5-min Rain = 0
KRO1 200428Z 08005KT 01/M04 A3033 RMK A01 T00091041  RH  069%=      5-min Rain = 0
KRO1 200429Z 08005KT 01/M04 A3033 RMK A01 T00091041  RH  069%=      5-min Rain = 0
KRO1 200430Z 07004KT 01/M04 A3033 RMK A01 T00091040  RH  070%=      5-min Rain = 0
KRO1 200431Z 08004KT 01/M04 A3033 RMK A01 T00091039  RH  070%=      5-min Rain = 0
KRO1 200432Z 09005KT 01/M04 A3033 RMK A01 T00081039  RH  071%=      5-min Rain = 0
KRO1 200433Z 09006KT 01/M04 A3033 RMK A01 T00081040  RH  070%=      5-min Rain = 0
KRO1 200434Z 09006KT 01/M04 A3033 RMK A01 T00081040  RH  070%=      5-min Rain = 0
KRO1 200435Z 10007KT 01/M04 A3032 RMK A01 T00071039  RH  071%=      5-min Rain = 0
KRO1 200436Z 10007KT 01/M04 A3032 RMK A01 T00061038  RH  072%=      5-min Rain = 0
KRO1 200437Z 10007KT 01/M04 A3032 RMK A01 T00051038  RH  073%=      5-min Rain = 0
KRO1 200438Z 10007KT 00/M04 A3032 RMK A01 T00041042  RH  071%=      5-min Rain = 0
KRO1 200439Z 10008KT 01/M04 A3032 RMK A01 T00051044  RH  070%=      5-min Rain = 0
KRO1 200440Z 10007KT 01/M05 A3032 RMK A01 T00061046  RH  068%=      5-min Rain = 0
KRO1 200441Z 10007KT 01/M05 A3032 RMK A01 T00071047  RH  067%=      5-min Rain = 0
KRO1 200442Z 10007KT 01/M05 A3033 RMK A01 T00081047  RH  067%=      5-min Rain = 0
KRO1 200443Z 10007KT 01/M05 A3032 RMK A01 T00081048  RH  066%=      5-min Rain = 0
KRO1 200444Z 10007KT 01/M05 A3032 RMK A01 T00081048  RH  066%=      5-min Rain = 0
KRO1 200445Z 10008KT 01/M05 A3032 RMK A01 T00081048  RH  066%=      5-min Rain = 0
KRO1 200446Z 10007KT 01/M05 A3032 RMK A01 T00081049  RH  066%=      5-min Rain = 0
KRO1 200447Z 10007KT 01/M05 A3032 RMK A01 T00081049  RH  066%=      5-min Rain = 0
KRO1 200448Z 09006KT 01/M05 A3032 RMK A01 T00071049  RH  066%=      5-min Rain = 0
KRO1 200449Z 10006KT 01/M05 A3032 RMK A01 T00071049  RH  066%=      5-min Rain = 0
KRO1 200450Z 09006KT 01/M05 A3033 RMK A01 T00071049  RH  066%=      5-min Rain = 0
KRO1 200451Z 09006KT 01/M05 A3033 RMK A01 T00071049  RH  066%=      5-min Rain = 0
KRO1 200452Z 09006KT 01/M05 A3033 RMK A01 T00071049  RH  066%=      5-min Rain = 0
KRO1 200453Z 09006KT 01/M05 A3033 RMK A01 T00071051  RH  065%=      5-min Rain = 0
KRO1 200454Z 10007KT 01/M05 A3033 RMK A01 T00071051  RH  065%=      5-min Rain = 0
KRO1 200455Z 10007KT 01/M05 A3032 RMK A01 T00071052  RH  065%=      5-min Rain = 0
KRO1 200456Z 10007KT 01/M05 A3032 RMK A01 T00081052  RH  064%=      5-min Rain = 0
KRO1 200457Z 10007KT 01/M05 A3032 RMK A01 T00081052  RH  064%=      5-min Rain = 0
KRO1 200458Z 10007KT 01/M05 A3032 RMK A01 T00081052  RH  064%=      5-min Rain = 0
KRO1 200459Z 10006KT 01/M05 A3033 RMK A01 T00071053  RH  064%=      5-min Rain = 0
KRO1 200500Z 09007KT 01/M05 A3033 RMK A01 T00071052  RH  064%=      5-min Rain = 0
KRO1 200501Z 09007KT 01/M05 A3033 RMK A01 T00071053  RH  064%=      5-min Rain = 0
KRO1 200502Z 10006KT 01/M05 A3033 RMK A01 T00071053  RH  064%=      5-min Rain = 0
KRO1 200503Z 10007KT 01/M05 A3033 RMK A01 T00071053  RH  064%=      5-min Rain = 0
KRO1 200504Z 10007KT 01/M05 A3033 RMK A01 T00071052  RH  065%=      5-min Rain = 0
KRO1 200505Z 11006KT 01/M05 A3033 RMK A01 T00071053  RH  065%=      5-min Rain = 0
KRO1 200506Z 11006KT 01/M05 A3033 RMK A01 T00061053  RH  065%=      5-min Rain = 0
KRO1 200507Z 11006KT 01/M05 A3033 RMK A01 T00061053  RH  065%=      5-min Rain = 0
KRO1 200508Z 11006KT 01/M05 A3033 RMK A01 T00061053  RH  065%=      5-min Rain = 0
KRO1 200509Z 11005KT 01/M05 A3033 RMK A01 T00051052  RH  065%=      5-min Rain = 0
KRO1 200510Z 11005KT 00/M05 A3033 RMK A01 T00041052  RH  066%=      5-min Rain = 0
KRO1 200511Z 12005KT 00/M05 A3033 RMK A01 T00041051  RH  067%=      5-min Rain = 0
KRO1 200512Z 12005KT 00/M05 A3033 RMK A01 T00031051  RH  067%=      5-min Rain = 0
KRO1 200513Z 12005KT 00/M05 A3033 RMK A01 T00031051  RH  067%=      5-min Rain = 0
KRO1 200514Z 11005KT 00/M05 A3033 RMK A01 T00031051  RH  067%=      5-min Rain = 0
KRO1 200515Z 11005KT 00/M05 A3033 RMK A01 T00021051  RH  067%=      5-min Rain = 0
KRO1 200516Z 10005KT 00/M05 A3034 RMK A01 T00021051  RH  067%=      5-min Rain = 0
KRO1 200517Z 09004KT 00/M05 A3034 RMK A01 T00021051  RH  067%=      5-min Rain = 0
KRO1 200518Z 09004KT 00/M05 A3034 RMK A01 T00031051  RH  067%=      5-min Rain = 0
KRO1 200519Z 09004KT 00/M05 A3034 RMK A01 T00031050  RH  068%=      5-min Rain = 0
KRO1 200520Z 09004KT 00/M05 A3034 RMK A01 T00021049  RH  068%=      5-min Rain = 0
KRO1 200521Z 09004KT 00/M05 A3034 RMK A01 T00021049  RH  068%=      5-min Rain = 0
KRO1 200522Z 10005KT 00/M05 A3034 RMK A01 T00021050  RH  068%=      5-min Rain = 0
KRO1 200523Z 10005KT 00/M05 A3033 RMK A01 T00021050  RH  068%=      5-min Rain = 0
KRO1 200524Z 11006KT 00/M05 A3033 RMK A01 T00021052  RH  067%=      5-min Rain = 0
KRO1 200525Z 11007KT 00/M05 A3032 RMK A01 T00021054  RH  066%=      5-min Rain = 0
KRO1 200526Z 11007KT 00/M06 A3032 RMK A01 T00021055  RH  065%=      5-min Rain = 0
KRO1 200527Z 11007KT 00/M06 A3032 RMK A01 T00021056  RH  065%=      5-min Rain = 0
KRO1 200528Z 11006KT 00/M06 A3032 RMK A01 T00011056  RH  065%=      5-min Rain = 0
KRO1 200529Z 10005KT 00/M06 A3033 RMK A01 T00011055  RH  066%=      5-min Rain = 0
KRO1 200530Z 10005KT 00/M06 A3033 RMK A01 T00011055  RH  066%=      5-min Rain = 0
KRO1 200531Z 09004KT 00/M06 A3033 RMK A01 T00011055  RH  066%=      5-min Rain = 0
KRO1 200532Z 09005KT 00/M06 A3033 RMK A01 T00011055  RH  066%=      5-min Rain = 0
KRO1 200533Z 08005KT 00/M06 A3033 RMK A01 T00011055  RH  066%=      5-min Rain = 0
KRO1 200534Z 08005KT 00/M05 A3033 RMK A01 T00011054  RH  067%=      5-min Rain = 0
KRO1 200535Z 08005KT 00/M05 A3033 RMK A01 T00011053  RH  067%=      5-min Rain = 0
KRO1 200536Z 08004KT 00/05 A3033 RMK A01 T00000-53  RH  067%=      5-min Rain = 0
KRO1 200537Z 08004KT 00/05 A3034 RMK A01 T00-00-53  RH  068%=      5-min Rain = 0
KRO1 200538Z 07003KT 00/05 A3034 RMK A01 T00000-53  RH  068%=      5-min Rain = 0
KRO1 200539Z 07003KT 00/05 A3034 RMK A01 T00-00-52  RH  068%=      5-min Rain = 0
KRO1 200540Z 08003KT M00/M05 A3034 RMK A01 T10011051  RH  069%=      5-min Rain = 0
KRO1 200541Z 07003KT M00/M05 A3034 RMK A01 T10011051  RH  069%=      5-min Rain = 0
KRO1 200542Z 07003KT M00/M05 A3034 RMK A01 T10011051  RH  069%=      5-min Rain = 0
KRO1 200543Z 07003KT M00/M05 A3034 RMK A01 T10021052  RH  069%=      5-min Rain = 0
KRO1 200544Z 08003KT M00/M05 A3034 RMK A01 T10021051  RH  069%=      5-min Rain = 0
KRO1 200545Z 08003KT M00/M05 A3033 RMK A01 T10011051  RH  069%=      5-min Rain = 0
KRO1 200546Z 09003KT M00/M05 A3033 RMK A01 T10021051  RH  069%=      5-min Rain = 0
KRO1 200547Z 09003KT M00/M05 A3033 RMK A01 T10011051  RH  069%=      5-min Rain = 0
KRO1 200548Z 09003KT M00/M05 A3033 RMK A01 T10021052  RH  069%=      5-min Rain = 0
KRO1 200549Z 10003KT M00/M05 A3033 RMK A01 T10021051  RH  069%=      5-min Rain = 0
KRO1 200550Z 10004KT M00/M05 A3033 RMK A01 T10031052  RH  069%=      5-min Rain = 0
KRO1 200551Z 10004KT M00/M05 A3033 RMK A01 T10031051  RH  070%=      5-min Rain = 0
KRO1 200552Z 10004KT M00/M05 A3033 RMK A01 T10031051  RH  070%=      5-min Rain = 0
KRO1 200553Z 09004KT M00/M05 A3033 RMK A01 T10041051  RH  070%=      5-min Rain = 0
KRO1 200554Z 09004KT M00/M05 A3033 RMK A01 T10041052  RH  070%=      5-min Rain = 0
KRO1 200555Z 09004KT M00/M05 A3033 RMK A01 T10041052  RH  070%=      5-min Rain = 0
KRO1 200556Z 09004KT M00/M05 A3033 RMK A01 T10041053  RH  070%=      5-min Rain = 0
KRO1 200557Z 08004KT M00/M05 A3033 RMK A01 T10041052  RH  070%=      5-min Rain = 0
KRO1 200558Z 09004KT M00/M05 A3033 RMK A01 T10041052  RH  070%=      5-min Rain = 0
KRO1 200559Z 09004KT M01/M05 A3033 RMK A01 T10051052  RH  070%=      5-min Rain = 0

Page generated in 0.1445 seconds.